<?xml version="1.0" encoding="UTF-8" standalone="no" ?>
<gpx xmlns="http://www.topografix.com/GPX/1/1" xmlns:xsi="http://www.w3.org/2001/XMLSchema-instance" xsi:schemaLocation="http://www.topografix.com/GPX/1/1 http://www.topografix.com/GPX/1/1/gpx.xsd" version="1.1" creator="VisuGPX - https://www.visugpx.com">
  <metadata>
    <name>dimanche 2025</name>
  </metadata>
  <wpt lat="45.34815" lon="0.53968">
    <ele>150.1</ele>
    <name><![CDATA[Ravitaillement]]></name>
  </wpt>
  <wpt lat="45.34811" lon="0.54003">
    <ele>149.1</ele>
    <name><![CDATA[Ravitaillement]]></name>
  </wpt>
  <wpt lat="45.34814" lon="0.5397">
    <ele>150</ele>
    <name><![CDATA[Ravitaillement]]></name>
  </wpt>
  <trk>
    <name><![CDATA[dimanche 67km]]></name>
    <extensions>
      <line xmlns="http://www.topografix.com/GPX/gpx_style/0/2">
        <color>00b3ff</color>
        <width>6</width>
          <extensions>
            <sens>1</sens>
          </extensions>
      </line>
    </extensions>
    <trkseg>
      <trkpt lat="45.24965" lon="0.33704">
        <ele>72</ele>
        <time>2025-04-16T07:01:51Z</time>
      </trkpt>
      <trkpt lat="45.24984" lon="0.337">
        <ele>72</ele>
        <time>2025-04-16T07:01:54Z</time>
      </trkpt>
      <trkpt lat="45.25077" lon="0.33681">
        <ele>70</ele>
        <time>2025-04-16T07:02:11Z</time>
      </trkpt>
      <trkpt lat="45.25073" lon="0.33623">
        <ele>71</ele>
        <time>2025-04-16T07:02:18Z</time>
      </trkpt>
      <trkpt lat="45.25076" lon="0.33593">
        <ele>72</ele>
        <time>2025-04-16T07:02:22Z</time>
      </trkpt>
      <trkpt lat="45.25437" lon="0.3365">
        <ele>69</ele>
        <time>2025-04-16T07:03:27Z</time>
      </trkpt>
      <trkpt lat="45.25452" lon="0.33655">
        <ele>70</ele>
        <time>2025-04-16T07:03:30Z</time>
      </trkpt>
      <trkpt lat="45.2553" lon="0.33667">
        <ele>70</ele>
        <time>2025-04-16T07:03:44Z</time>
      </trkpt>
      <trkpt lat="45.25536" lon="0.33672">
        <ele>70</ele>
        <time>2025-04-16T07:03:45Z</time>
      </trkpt>
      <trkpt lat="45.25539" lon="0.33679">
        <ele>69</ele>
        <time>2025-04-16T07:03:46Z</time>
      </trkpt>
      <trkpt lat="45.25541" lon="0.33708">
        <ele>69</ele>
        <time>2025-04-16T07:03:49Z</time>
      </trkpt>
      <trkpt lat="45.2555" lon="0.33766">
        <ele>68</ele>
        <time>2025-04-16T07:03:57Z</time>
      </trkpt>
      <trkpt lat="45.25549" lon="0.33787">
        <ele>67</ele>
        <time>2025-04-16T07:04:00Z</time>
      </trkpt>
      <trkpt lat="45.25547" lon="0.33806">
        <ele>67</ele>
        <time>2025-04-16T07:04:02Z</time>
      </trkpt>
      <trkpt lat="45.25522" lon="0.33933">
        <ele>65</ele>
        <time>2025-04-16T07:04:18Z</time>
      </trkpt>
      <trkpt lat="45.25514" lon="0.33974">
        <ele>64</ele>
        <time>2025-04-16T07:04:24Z</time>
      </trkpt>
      <trkpt lat="45.25513" lon="0.33978">
        <ele>64</ele>
        <time>2025-04-16T07:04:24Z</time>
      </trkpt>
      <trkpt lat="45.255" lon="0.34039">
        <ele>64</ele>
        <time>2025-04-16T07:04:32Z</time>
      </trkpt>
      <trkpt lat="45.25494" lon="0.34054">
        <ele>65</ele>
        <time>2025-04-16T07:04:34Z</time>
      </trkpt>
      <trkpt lat="45.25484" lon="0.34069">
        <ele>66</ele>
        <time>2025-04-16T07:04:37Z</time>
      </trkpt>
      <trkpt lat="45.25469" lon="0.34083">
        <ele>66</ele>
        <time>2025-04-16T07:04:40Z</time>
      </trkpt>
      <trkpt lat="45.25455" lon="0.34092">
        <ele>67</ele>
        <time>2025-04-16T07:04:43Z</time>
      </trkpt>
      <trkpt lat="45.25452" lon="0.34092">
        <ele>67</ele>
        <time>2025-04-16T07:04:44Z</time>
      </trkpt>
      <trkpt lat="45.25446" lon="0.34095">
        <ele>68</ele>
        <time>2025-04-16T07:04:45Z</time>
      </trkpt>
      <trkpt lat="45.25443" lon="0.34102">
        <ele>68</ele>
        <time>2025-04-16T07:04:46Z</time>
      </trkpt>
      <trkpt lat="45.25442" lon="0.34109">
        <ele>68</ele>
        <time>2025-04-16T07:04:47Z</time>
      </trkpt>
      <trkpt lat="45.25444" lon="0.34115">
        <ele>68</ele>
        <time>2025-04-16T07:04:47Z</time>
      </trkpt>
      <trkpt lat="45.2545" lon="0.34121">
        <ele>68</ele>
        <time>2025-04-16T07:04:49Z</time>
      </trkpt>
      <trkpt lat="45.25456" lon="0.34121">
        <ele>67</ele>
        <time>2025-04-16T07:04:50Z</time>
      </trkpt>
      <trkpt lat="45.25505" lon="0.34162">
        <ele>65</ele>
        <time>2025-04-16T07:05:00Z</time>
      </trkpt>
      <trkpt lat="45.25619" lon="0.34246">
        <ele>63</ele>
        <time>2025-04-16T07:05:23Z</time>
      </trkpt>
      <trkpt lat="45.2566" lon="0.34276">
        <ele>61</ele>
        <time>2025-04-16T07:05:31Z</time>
      </trkpt>
      <trkpt lat="45.25678" lon="0.34286">
        <ele>61</ele>
        <time>2025-04-16T07:05:34Z</time>
      </trkpt>
      <trkpt lat="45.25693" lon="0.3429">
        <ele>61</ele>
        <time>2025-04-16T07:05:37Z</time>
      </trkpt>
      <trkpt lat="45.25715" lon="0.34292">
        <ele>62</ele>
        <time>2025-04-16T07:05:41Z</time>
      </trkpt>
      <trkpt lat="45.25768" lon="0.34291">
        <ele>62</ele>
        <time>2025-04-16T07:05:50Z</time>
      </trkpt>
      <trkpt lat="45.25797" lon="0.3429">
        <ele>63</ele>
        <time>2025-04-16T07:05:56Z</time>
      </trkpt>
      <trkpt lat="45.25925" lon="0.34288">
        <ele>61</ele>
        <time>2025-04-16T07:06:18Z</time>
      </trkpt>
      <trkpt lat="45.25963" lon="0.34288">
        <ele>61</ele>
        <time>2025-04-16T07:06:25Z</time>
      </trkpt>
      <trkpt lat="45.26056" lon="0.34284">
        <ele>61</ele>
        <time>2025-04-16T07:06:42Z</time>
      </trkpt>
      <trkpt lat="45.26101" lon="0.34287">
        <ele>61</ele>
        <time>2025-04-16T07:06:50Z</time>
      </trkpt>
      <trkpt lat="45.26115" lon="0.34294">
        <ele>61</ele>
        <time>2025-04-16T07:06:52Z</time>
      </trkpt>
      <trkpt lat="45.26117" lon="0.343">
        <ele>61</ele>
        <time>2025-04-16T07:06:53Z</time>
      </trkpt>
      <trkpt lat="45.26125" lon="0.34303">
        <ele>61</ele>
        <time>2025-04-16T07:06:55Z</time>
      </trkpt>
      <trkpt lat="45.26135" lon="0.34322">
        <ele>61</ele>
        <time>2025-04-16T07:06:58Z</time>
      </trkpt>
      <trkpt lat="45.26249" lon="0.34681">
        <ele>63</ele>
        <time>2025-04-16T07:07:47Z</time>
      </trkpt>
      <trkpt lat="45.26254" lon="0.34713">
        <ele>64</ele>
        <time>2025-04-16T07:07:51Z</time>
      </trkpt>
      <trkpt lat="45.26254" lon="0.34733">
        <ele>64</ele>
        <time>2025-04-16T07:07:54Z</time>
      </trkpt>
      <trkpt lat="45.2625" lon="0.3476">
        <ele>64</ele>
        <time>2025-04-16T07:07:57Z</time>
      </trkpt>
      <trkpt lat="45.2618" lon="0.35175">
        <ele>64</ele>
        <time>2025-04-16T07:08:50Z</time>
      </trkpt>
      <trkpt lat="45.26154" lon="0.35333">
        <ele>65</ele>
        <time>2025-04-16T07:09:11Z</time>
      </trkpt>
      <trkpt lat="45.26148" lon="0.35373">
        <ele>65</ele>
        <time>2025-04-16T07:09:16Z</time>
      </trkpt>
      <trkpt lat="45.26146" lon="0.35406">
        <ele>65</ele>
        <time>2025-04-16T07:09:20Z</time>
      </trkpt>
      <trkpt lat="45.26148" lon="0.35455">
        <ele>65</ele>
        <time>2025-04-16T07:09:26Z</time>
      </trkpt>
      <trkpt lat="45.26186" lon="0.35739">
        <ele>66</ele>
        <time>2025-04-16T07:10:02Z</time>
      </trkpt>
      <trkpt lat="45.26191" lon="0.35837">
        <ele>64</ele>
        <time>2025-04-16T07:10:15Z</time>
      </trkpt>
      <trkpt lat="45.26194" lon="0.35955">
        <ele>65</ele>
        <time>2025-04-16T07:10:30Z</time>
      </trkpt>
      <trkpt lat="45.26199" lon="0.36014">
        <ele>66</ele>
        <time>2025-04-16T07:10:37Z</time>
      </trkpt>
      <trkpt lat="45.26214" lon="0.36082">
        <ele>67</ele>
        <time>2025-04-16T07:10:46Z</time>
      </trkpt>
      <trkpt lat="45.26216" lon="0.36088">
        <ele>67</ele>
        <time>2025-04-16T07:10:47Z</time>
      </trkpt>
      <trkpt lat="45.26225" lon="0.36143">
        <ele>68</ele>
        <time>2025-04-16T07:10:54Z</time>
      </trkpt>
      <trkpt lat="45.26225" lon="0.36273">
        <ele>69</ele>
        <time>2025-04-16T07:11:10Z</time>
      </trkpt>
      <trkpt lat="45.26227" lon="0.36312">
        <ele>69</ele>
        <time>2025-04-16T07:11:15Z</time>
      </trkpt>
      <trkpt lat="45.2623" lon="0.36336">
        <ele>69</ele>
        <time>2025-04-16T07:11:18Z</time>
      </trkpt>
      <trkpt lat="45.26238" lon="0.36376">
        <ele>69</ele>
        <time>2025-04-16T07:11:23Z</time>
      </trkpt>
      <trkpt lat="45.2626" lon="0.36454">
        <ele>71</ele>
        <time>2025-04-16T07:11:34Z</time>
      </trkpt>
      <trkpt lat="45.26264" lon="0.36545">
        <ele>71</ele>
        <time>2025-04-16T07:11:45Z</time>
      </trkpt>
      <trkpt lat="45.26299" lon="0.37017">
        <ele>67</ele>
        <time>2025-04-16T07:12:45Z</time>
      </trkpt>
      <trkpt lat="45.26295" lon="0.37217">
        <ele>67</ele>
        <time>2025-04-16T07:13:10Z</time>
      </trkpt>
      <trkpt lat="45.26295" lon="0.37219">
        <ele>67</ele>
        <time>2025-04-16T07:13:10Z</time>
      </trkpt>
      <trkpt lat="45.26295" lon="0.37243">
        <ele>68</ele>
        <time>2025-04-16T07:13:13Z</time>
      </trkpt>
      <trkpt lat="45.2629" lon="0.37407">
        <ele>74</ele>
        <time>2025-04-16T07:13:33Z</time>
      </trkpt>
      <trkpt lat="45.26291" lon="0.37435">
        <ele>74</ele>
        <time>2025-04-16T07:13:37Z</time>
      </trkpt>
      <trkpt lat="45.26294" lon="0.37473">
        <ele>74</ele>
        <time>2025-04-16T07:13:42Z</time>
      </trkpt>
      <trkpt lat="45.26304" lon="0.37557">
        <ele>75</ele>
        <time>2025-04-16T07:13:52Z</time>
      </trkpt>
      <trkpt lat="45.26307" lon="0.37659">
        <ele>77</ele>
        <time>2025-04-16T07:14:05Z</time>
      </trkpt>
      <trkpt lat="45.26312" lon="0.3771">
        <ele>78</ele>
        <time>2025-04-16T07:14:12Z</time>
      </trkpt>
      <trkpt lat="45.2632" lon="0.37749">
        <ele>78</ele>
        <time>2025-04-16T07:14:17Z</time>
      </trkpt>
      <trkpt lat="45.26335" lon="0.37798">
        <ele>79</ele>
        <time>2025-04-16T07:14:23Z</time>
      </trkpt>
      <trkpt lat="45.2634" lon="0.37826">
        <ele>79</ele>
        <time>2025-04-16T07:14:27Z</time>
      </trkpt>
      <trkpt lat="45.26342" lon="0.37856">
        <ele>78</ele>
        <time>2025-04-16T07:14:31Z</time>
      </trkpt>
      <trkpt lat="45.26341" lon="0.37884">
        <ele>78</ele>
        <time>2025-04-16T07:14:34Z</time>
      </trkpt>
      <trkpt lat="45.26335" lon="0.37922">
        <ele>77</ele>
        <time>2025-04-16T07:14:39Z</time>
      </trkpt>
      <trkpt lat="45.2631" lon="0.3799">
        <ele>77</ele>
        <time>2025-04-16T07:14:49Z</time>
      </trkpt>
      <trkpt lat="45.26297" lon="0.38032">
        <ele>77</ele>
        <time>2025-04-16T07:14:55Z</time>
      </trkpt>
      <trkpt lat="45.26293" lon="0.38053">
        <ele>77</ele>
        <time>2025-04-16T07:14:57Z</time>
      </trkpt>
      <trkpt lat="45.26288" lon="0.38084">
        <ele>78</ele>
        <time>2025-04-16T07:15:01Z</time>
      </trkpt>
      <trkpt lat="45.26284" lon="0.38172">
        <ele>78</ele>
        <time>2025-04-16T07:15:12Z</time>
      </trkpt>
      <trkpt lat="45.26285" lon="0.38233">
        <ele>78</ele>
        <time>2025-04-16T07:15:20Z</time>
      </trkpt>
      <trkpt lat="45.2629" lon="0.38307">
        <ele>78</ele>
        <time>2025-04-16T07:15:29Z</time>
      </trkpt>
      <trkpt lat="45.26305" lon="0.38475">
        <ele>78</ele>
        <time>2025-04-16T07:15:51Z</time>
      </trkpt>
      <trkpt lat="45.26307" lon="0.38519">
        <ele>78</ele>
        <time>2025-04-16T07:15:56Z</time>
      </trkpt>
      <trkpt lat="45.26304" lon="0.38759">
        <ele>72</ele>
        <time>2025-04-16T07:16:26Z</time>
      </trkpt>
      <trkpt lat="45.26306" lon="0.38785">
        <ele>71</ele>
        <time>2025-04-16T07:16:29Z</time>
      </trkpt>
      <trkpt lat="45.26312" lon="0.38807">
        <ele>71</ele>
        <time>2025-04-16T07:16:32Z</time>
      </trkpt>
      <trkpt lat="45.26329" lon="0.38843">
        <ele>70</ele>
        <time>2025-04-16T07:16:38Z</time>
      </trkpt>
      <trkpt lat="45.26357" lon="0.38898">
        <ele>70</ele>
        <time>2025-04-16T07:16:46Z</time>
      </trkpt>
      <trkpt lat="45.26366" lon="0.38926">
        <ele>69</ele>
        <time>2025-04-16T07:16:50Z</time>
      </trkpt>
      <trkpt lat="45.26368" lon="0.3894">
        <ele>69</ele>
        <time>2025-04-16T07:16:52Z</time>
      </trkpt>
      <trkpt lat="45.26366" lon="0.38959">
        <ele>69</ele>
        <time>2025-04-16T07:16:54Z</time>
      </trkpt>
      <trkpt lat="45.26355" lon="0.39054">
        <ele>68</ele>
        <time>2025-04-16T07:17:06Z</time>
      </trkpt>
      <trkpt lat="45.26355" lon="0.39069">
        <ele>67</ele>
        <time>2025-04-16T07:17:08Z</time>
      </trkpt>
      <trkpt lat="45.26357" lon="0.39081">
        <ele>67</ele>
        <time>2025-04-16T07:17:10Z</time>
      </trkpt>
      <trkpt lat="45.26365" lon="0.3909">
        <ele>67</ele>
        <time>2025-04-16T07:17:12Z</time>
      </trkpt>
      <trkpt lat="45.26373" lon="0.39095">
        <ele>67</ele>
        <time>2025-04-16T07:17:13Z</time>
      </trkpt>
      <trkpt lat="45.26384" lon="0.39096">
        <ele>68</ele>
        <time>2025-04-16T07:17:15Z</time>
      </trkpt>
      <trkpt lat="45.26497" lon="0.39077">
        <ele>68</ele>
        <time>2025-04-16T07:17:35Z</time>
      </trkpt>
      <trkpt lat="45.26536" lon="0.39076">
        <ele>70</ele>
        <time>2025-04-16T07:17:42Z</time>
      </trkpt>
      <trkpt lat="45.26637" lon="0.39091">
        <ele>71</ele>
        <time>2025-04-16T07:18:00Z</time>
      </trkpt>
      <trkpt lat="45.26673" lon="0.39101">
        <ele>72</ele>
        <time>2025-04-16T07:18:07Z</time>
      </trkpt>
      <trkpt lat="45.26691" lon="0.39108">
        <ele>72</ele>
        <time>2025-04-16T07:18:10Z</time>
      </trkpt>
      <trkpt lat="45.26715" lon="0.3913">
        <ele>72</ele>
        <time>2025-04-16T07:18:15Z</time>
      </trkpt>
      <trkpt lat="45.26803" lon="0.39249">
        <ele>71</ele>
        <time>2025-04-16T07:18:37Z</time>
      </trkpt>
      <trkpt lat="45.26813" lon="0.39264">
        <ele>71</ele>
        <time>2025-04-16T07:18:40Z</time>
      </trkpt>
      <trkpt lat="45.26839" lon="0.39304">
        <ele>71</ele>
        <time>2025-04-16T07:18:46Z</time>
      </trkpt>
      <trkpt lat="45.27049" lon="0.39595">
        <ele>84</ele>
        <time>2025-04-16T07:19:39Z</time>
      </trkpt>
      <trkpt lat="45.27067" lon="0.39623">
        <ele>85</ele>
        <time>2025-04-16T07:19:43Z</time>
      </trkpt>
      <trkpt lat="45.27183" lon="0.3986">
        <ele>83</ele>
        <time>2025-04-16T07:20:19Z</time>
      </trkpt>
      <trkpt lat="45.27211" lon="0.39897">
        <ele>84</ele>
        <time>2025-04-16T07:20:26Z</time>
      </trkpt>
      <trkpt lat="45.27242" lon="0.39936">
        <ele>84</ele>
        <time>2025-04-16T07:20:34Z</time>
      </trkpt>
      <trkpt lat="45.27268" lon="0.39962">
        <ele>85</ele>
        <time>2025-04-16T07:20:39Z</time>
      </trkpt>
      <trkpt lat="45.27294" lon="0.39986">
        <ele>86</ele>
        <time>2025-04-16T07:20:45Z</time>
      </trkpt>
      <trkpt lat="45.27382" lon="0.40043">
        <ele>88</ele>
        <time>2025-04-16T07:21:02Z</time>
      </trkpt>
      <trkpt lat="45.27437" lon="0.40061">
        <ele>87</ele>
        <time>2025-04-16T07:21:12Z</time>
      </trkpt>
      <trkpt lat="45.27511" lon="0.40071">
        <ele>88</ele>
        <time>2025-04-16T07:21:25Z</time>
      </trkpt>
      <trkpt lat="45.27536" lon="0.40079">
        <ele>89</ele>
        <time>2025-04-16T07:21:30Z</time>
      </trkpt>
      <trkpt lat="45.27596" lon="0.40107">
        <ele>90</ele>
        <time>2025-04-16T07:21:41Z</time>
      </trkpt>
      <trkpt lat="45.2772" lon="0.40151">
        <ele>88</ele>
        <time>2025-04-16T07:22:04Z</time>
      </trkpt>
      <trkpt lat="45.27789" lon="0.40157">
        <ele>89</ele>
        <time>2025-04-16T07:22:16Z</time>
      </trkpt>
      <trkpt lat="45.28123" lon="0.40288">
        <ele>93</ele>
        <time>2025-04-16T07:23:18Z</time>
      </trkpt>
      <trkpt lat="45.28147" lon="0.40294">
        <ele>93</ele>
        <time>2025-04-16T07:23:22Z</time>
      </trkpt>
      <trkpt lat="45.28359" lon="0.40327">
        <ele>94</ele>
        <time>2025-04-16T07:24:00Z</time>
      </trkpt>
      <trkpt lat="45.28396" lon="0.40327">
        <ele>95</ele>
        <time>2025-04-16T07:24:07Z</time>
      </trkpt>
      <trkpt lat="45.28502" lon="0.40322">
        <ele>99</ele>
        <time>2025-04-16T07:24:25Z</time>
      </trkpt>
      <trkpt lat="45.28624" lon="0.40306">
        <ele>103</ele>
        <time>2025-04-16T07:24:47Z</time>
      </trkpt>
      <trkpt lat="45.28647" lon="0.40308">
        <ele>103</ele>
        <time>2025-04-16T07:24:51Z</time>
      </trkpt>
      <trkpt lat="45.28816" lon="0.40385">
        <ele>98</ele>
        <time>2025-04-16T07:25:23Z</time>
      </trkpt>
      <trkpt lat="45.28836" lon="0.40392">
        <ele>98</ele>
        <time>2025-04-16T07:25:27Z</time>
      </trkpt>
      <trkpt lat="45.28867" lon="0.40397">
        <ele>100</ele>
        <time>2025-04-16T07:25:32Z</time>
      </trkpt>
      <trkpt lat="45.2889" lon="0.40405">
        <ele>101</ele>
        <time>2025-04-16T07:25:36Z</time>
      </trkpt>
      <trkpt lat="45.28904" lon="0.40415">
        <ele>101</ele>
        <time>2025-04-16T07:25:39Z</time>
      </trkpt>
      <trkpt lat="45.28933" lon="0.40442">
        <ele>102</ele>
        <time>2025-04-16T07:25:45Z</time>
      </trkpt>
      <trkpt lat="45.28946" lon="0.40452">
        <ele>102</ele>
        <time>2025-04-16T07:25:48Z</time>
      </trkpt>
      <trkpt lat="45.29194" lon="0.4055">
        <ele>105</ele>
        <time>2025-04-16T07:26:34Z</time>
      </trkpt>
      <trkpt lat="45.29216" lon="0.40554">
        <ele>105</ele>
        <time>2025-04-16T07:26:38Z</time>
      </trkpt>
      <trkpt lat="45.29258" lon="0.40555">
        <ele>107</ele>
        <time>2025-04-16T07:26:45Z</time>
      </trkpt>
      <trkpt lat="45.29273" lon="0.40557">
        <ele>109</ele>
        <time>2025-04-16T07:26:48Z</time>
      </trkpt>
      <trkpt lat="45.29288" lon="0.40564">
        <ele>109</ele>
        <time>2025-04-16T07:26:51Z</time>
      </trkpt>
      <trkpt lat="45.293" lon="0.40573">
        <ele>109</ele>
        <time>2025-04-16T07:26:53Z</time>
      </trkpt>
      <trkpt lat="45.2931" lon="0.40585">
        <ele>109</ele>
        <time>2025-04-16T07:26:55Z</time>
      </trkpt>
      <trkpt lat="45.29388" lon="0.40687">
        <ele>109</ele>
        <time>2025-04-16T07:27:14Z</time>
      </trkpt>
      <trkpt lat="45.294" lon="0.40707">
        <ele>109</ele>
        <time>2025-04-16T07:27:18Z</time>
      </trkpt>
      <trkpt lat="45.2941" lon="0.40727">
        <ele>109</ele>
        <time>2025-04-16T07:27:21Z</time>
      </trkpt>
      <trkpt lat="45.29521" lon="0.4101">
        <ele>107</ele>
        <time>2025-04-16T07:28:01Z</time>
      </trkpt>
      <trkpt lat="45.29536" lon="0.41032">
        <ele>107</ele>
        <time>2025-04-16T07:28:05Z</time>
      </trkpt>
      <trkpt lat="45.29589" lon="0.41097">
        <ele>106</ele>
        <time>2025-04-16T07:28:17Z</time>
      </trkpt>
      <trkpt lat="45.29695" lon="0.4126">
        <ele>106</ele>
        <time>2025-04-16T07:28:45Z</time>
      </trkpt>
      <trkpt lat="45.29702" lon="0.4127">
        <ele>106</ele>
        <time>2025-04-16T07:28:47Z</time>
      </trkpt>
      <trkpt lat="45.29715" lon="0.41276">
        <ele>107</ele>
        <time>2025-04-16T07:28:49Z</time>
      </trkpt>
      <trkpt lat="45.29741" lon="0.41322">
        <ele>105</ele>
        <time>2025-04-16T07:28:57Z</time>
      </trkpt>
      <trkpt lat="45.29762" lon="0.41364">
        <ele>105</ele>
        <time>2025-04-16T07:29:03Z</time>
      </trkpt>
      <trkpt lat="45.29766" lon="0.41367">
        <ele>105</ele>
        <time>2025-04-16T07:29:04Z</time>
      </trkpt>
      <trkpt lat="45.29777" lon="0.41368">
        <ele>106</ele>
        <time>2025-04-16T07:29:06Z</time>
      </trkpt>
      <trkpt lat="45.29782" lon="0.41364">
        <ele>106</ele>
        <time>2025-04-16T07:29:07Z</time>
      </trkpt>
      <trkpt lat="45.29792" lon="0.4135">
        <ele>107</ele>
        <time>2025-04-16T07:29:10Z</time>
      </trkpt>
      <trkpt lat="45.29802" lon="0.41346">
        <ele>108</ele>
        <time>2025-04-16T07:29:11Z</time>
      </trkpt>
      <trkpt lat="45.29834" lon="0.41375">
        <ele>109</ele>
        <time>2025-04-16T07:29:18Z</time>
      </trkpt>
      <trkpt lat="45.29916" lon="0.41415">
        <ele>112</ele>
        <time>2025-04-16T07:29:34Z</time>
      </trkpt>
      <trkpt lat="45.29942" lon="0.41442">
        <ele>113</ele>
        <time>2025-04-16T07:29:39Z</time>
      </trkpt>
      <trkpt lat="45.29973" lon="0.4148">
        <ele>113</ele>
        <time>2025-04-16T07:29:47Z</time>
      </trkpt>
      <trkpt lat="45.29992" lon="0.41499">
        <ele>113</ele>
        <time>2025-04-16T07:29:51Z</time>
      </trkpt>
      <trkpt lat="45.30009" lon="0.41507">
        <ele>114</ele>
        <time>2025-04-16T07:29:54Z</time>
      </trkpt>
      <trkpt lat="45.30031" lon="0.41512">
        <ele>115</ele>
        <time>2025-04-16T07:29:58Z</time>
      </trkpt>
      <trkpt lat="45.30075" lon="0.4151">
        <ele>118</ele>
        <time>2025-04-16T07:30:06Z</time>
      </trkpt>
      <trkpt lat="45.30121" lon="0.41494">
        <ele>119</ele>
        <time>2025-04-16T07:30:14Z</time>
      </trkpt>
      <trkpt lat="45.30192" lon="0.41467">
        <ele>121</ele>
        <time>2025-04-16T07:30:27Z</time>
      </trkpt>
      <trkpt lat="45.30208" lon="0.41465">
        <ele>120</ele>
        <time>2025-04-16T07:30:30Z</time>
      </trkpt>
      <trkpt lat="45.30225" lon="0.41468">
        <ele>120</ele>
        <time>2025-04-16T07:30:33Z</time>
      </trkpt>
      <trkpt lat="45.30247" lon="0.41476">
        <ele>119</ele>
        <time>2025-04-16T07:30:37Z</time>
      </trkpt>
      <trkpt lat="45.30314" lon="0.41509">
        <ele>119</ele>
        <time>2025-04-16T07:30:50Z</time>
      </trkpt>
      <trkpt lat="45.3035" lon="0.41539">
        <ele>120</ele>
        <time>2025-04-16T07:30:57Z</time>
      </trkpt>
      <trkpt lat="45.30408" lon="0.41594">
        <ele>120</ele>
        <time>2025-04-16T07:31:10Z</time>
      </trkpt>
      <trkpt lat="45.30434" lon="0.41607">
        <ele>119</ele>
        <time>2025-04-16T07:31:15Z</time>
      </trkpt>
      <trkpt lat="45.30442" lon="0.41608">
        <ele>119</ele>
        <time>2025-04-16T07:31:16Z</time>
      </trkpt>
      <trkpt lat="45.30628" lon="0.41565">
        <ele>122</ele>
        <time>2025-04-16T07:31:49Z</time>
      </trkpt>
      <trkpt lat="45.30655" lon="0.41555">
        <ele>121</ele>
        <time>2025-04-16T07:31:54Z</time>
      </trkpt>
      <trkpt lat="45.30674" lon="0.41542">
        <ele>121</ele>
        <time>2025-04-16T07:31:58Z</time>
      </trkpt>
      <trkpt lat="45.30694" lon="0.4152">
        <ele>123</ele>
        <time>2025-04-16T07:32:03Z</time>
      </trkpt>
      <trkpt lat="45.30872" lon="0.41279">
        <ele>130</ele>
        <time>2025-04-16T07:32:46Z</time>
      </trkpt>
      <trkpt lat="45.309" lon="0.41246">
        <ele>132</ele>
        <time>2025-04-16T07:32:53Z</time>
      </trkpt>
      <trkpt lat="45.30927" lon="0.41225">
        <ele>133</ele>
        <time>2025-04-16T07:32:58Z</time>
      </trkpt>
      <trkpt lat="45.30947" lon="0.41217">
        <ele>133</ele>
        <time>2025-04-16T07:33:02Z</time>
      </trkpt>
      <trkpt lat="45.30994" lon="0.41207">
        <ele>135</ele>
        <time>2025-04-16T07:33:11Z</time>
      </trkpt>
      <trkpt lat="45.31013" lon="0.41196">
        <ele>135</ele>
        <time>2025-04-16T07:33:14Z</time>
      </trkpt>
      <trkpt lat="45.31044" lon="0.41168">
        <ele>135</ele>
        <time>2025-04-16T07:33:21Z</time>
      </trkpt>
      <trkpt lat="45.31072" lon="0.41146">
        <ele>138</ele>
        <time>2025-04-16T07:33:26Z</time>
      </trkpt>
      <trkpt lat="45.31089" lon="0.4114">
        <ele>138</ele>
        <time>2025-04-16T07:33:30Z</time>
      </trkpt>
      <trkpt lat="45.31107" lon="0.41142">
        <ele>139</ele>
        <time>2025-04-16T07:33:33Z</time>
      </trkpt>
      <trkpt lat="45.31128" lon="0.41154">
        <ele>140</ele>
        <time>2025-04-16T07:33:37Z</time>
      </trkpt>
      <trkpt lat="45.31145" lon="0.41169">
        <ele>141</ele>
        <time>2025-04-16T07:33:40Z</time>
      </trkpt>
      <trkpt lat="45.31193" lon="0.41227">
        <ele>146</ele>
        <time>2025-04-16T07:33:52Z</time>
      </trkpt>
      <trkpt lat="45.31208" lon="0.41237">
        <ele>147</ele>
        <time>2025-04-16T07:33:54Z</time>
      </trkpt>
      <trkpt lat="45.31236" lon="0.41249">
        <ele>148</ele>
        <time>2025-04-16T07:34:00Z</time>
      </trkpt>
      <trkpt lat="45.3139" lon="0.41307">
        <ele>157</ele>
        <time>2025-04-16T07:34:28Z</time>
      </trkpt>
      <trkpt lat="45.31432" lon="0.41313">
        <ele>159</ele>
        <time>2025-04-16T07:34:36Z</time>
      </trkpt>
      <trkpt lat="45.31494" lon="0.41318">
        <ele>164</ele>
        <time>2025-04-16T07:34:47Z</time>
      </trkpt>
      <trkpt lat="45.31516" lon="0.41322">
        <ele>165</ele>
        <time>2025-04-16T07:34:51Z</time>
      </trkpt>
      <trkpt lat="45.31655" lon="0.41373">
        <ele>173</ele>
        <time>2025-04-16T07:35:16Z</time>
      </trkpt>
      <trkpt lat="45.31676" lon="0.41378">
        <ele>174</ele>
        <time>2025-04-16T07:35:20Z</time>
      </trkpt>
      <trkpt lat="45.31717" lon="0.41381">
        <ele>177</ele>
        <time>2025-04-16T07:35:27Z</time>
      </trkpt>
      <trkpt lat="45.31824" lon="0.41373">
        <ele>183</ele>
        <time>2025-04-16T07:35:46Z</time>
      </trkpt>
      <trkpt lat="45.31875" lon="0.41375">
        <ele>186</ele>
        <time>2025-04-16T07:35:55Z</time>
      </trkpt>
      <trkpt lat="45.31896" lon="0.41378">
        <ele>187</ele>
        <time>2025-04-16T07:35:59Z</time>
      </trkpt>
      <trkpt lat="45.31914" lon="0.41384">
        <ele>187</ele>
        <time>2025-04-16T07:36:02Z</time>
      </trkpt>
      <trkpt lat="45.31958" lon="0.41398">
        <ele>189</ele>
        <time>2025-04-16T07:36:10Z</time>
      </trkpt>
      <trkpt lat="45.31978" lon="0.41399">
        <ele>190</ele>
        <time>2025-04-16T07:36:14Z</time>
      </trkpt>
      <trkpt lat="45.32025" lon="0.41392">
        <ele>193</ele>
        <time>2025-04-16T07:36:22Z</time>
      </trkpt>
      <trkpt lat="45.3204" lon="0.41394">
        <ele>193</ele>
        <time>2025-04-16T07:36:25Z</time>
      </trkpt>
      <trkpt lat="45.32054" lon="0.41399">
        <ele>193</ele>
        <time>2025-04-16T07:36:28Z</time>
      </trkpt>
      <trkpt lat="45.32071" lon="0.41411">
        <ele>193</ele>
        <time>2025-04-16T07:36:31Z</time>
      </trkpt>
      <trkpt lat="45.32083" lon="0.41427">
        <ele>192</ele>
        <time>2025-04-16T07:36:34Z</time>
      </trkpt>
      <trkpt lat="45.32141" lon="0.41525">
        <ele>193</ele>
        <time>2025-04-16T07:36:50Z</time>
      </trkpt>
      <trkpt lat="45.32183" lon="0.4159">
        <ele>195</ele>
        <time>2025-04-16T07:37:01Z</time>
      </trkpt>
      <trkpt lat="45.32233" lon="0.41673">
        <ele>198</ele>
        <time>2025-04-16T07:37:15Z</time>
      </trkpt>
      <trkpt lat="45.32245" lon="0.41709">
        <ele>201</ele>
        <time>2025-04-16T07:37:20Z</time>
      </trkpt>
      <trkpt lat="45.32247" lon="0.41733">
        <ele>202</ele>
        <time>2025-04-16T07:37:23Z</time>
      </trkpt>
      <trkpt lat="45.32245" lon="0.41765">
        <ele>204</ele>
        <time>2025-04-16T07:37:27Z</time>
      </trkpt>
      <trkpt lat="45.32231" lon="0.41937">
        <ele>213</ele>
        <time>2025-04-16T07:37:48Z</time>
      </trkpt>
      <trkpt lat="45.32231" lon="0.41962">
        <ele>213</ele>
        <time>2025-04-16T07:37:51Z</time>
      </trkpt>
      <trkpt lat="45.32236" lon="0.41984">
        <ele>213</ele>
        <time>2025-04-16T07:37:54Z</time>
      </trkpt>
      <trkpt lat="45.32243" lon="0.41998">
        <ele>214</ele>
        <time>2025-04-16T07:37:56Z</time>
      </trkpt>
      <trkpt lat="45.32254" lon="0.42015">
        <ele>213</ele>
        <time>2025-04-16T07:37:59Z</time>
      </trkpt>
      <trkpt lat="45.32523" lon="0.42344">
        <ele>197</ele>
        <time>2025-04-16T07:39:03Z</time>
      </trkpt>
      <trkpt lat="45.32609" lon="0.42436">
        <ele>201</ele>
        <time>2025-04-16T07:39:22Z</time>
      </trkpt>
      <trkpt lat="45.32628" lon="0.42463">
        <ele>201</ele>
        <time>2025-04-16T07:39:26Z</time>
      </trkpt>
      <trkpt lat="45.32693" lon="0.42635">
        <ele>205</ele>
        <time>2025-04-16T07:39:51Z</time>
      </trkpt>
      <trkpt lat="45.32721" lon="0.42699">
        <ele>204</ele>
        <time>2025-04-16T07:40:00Z</time>
      </trkpt>
      <trkpt lat="45.32743" lon="0.42723">
        <ele>203</ele>
        <time>2025-04-16T07:40:05Z</time>
      </trkpt>
      <trkpt lat="45.32888" lon="0.42819">
        <ele>199</ele>
        <time>2025-04-16T07:40:34Z</time>
      </trkpt>
      <trkpt lat="45.32909" lon="0.42828">
        <ele>199</ele>
        <time>2025-04-16T07:40:38Z</time>
      </trkpt>
      <trkpt lat="45.33024" lon="0.42859">
        <ele>195</ele>
        <time>2025-04-16T07:40:58Z</time>
      </trkpt>
      <trkpt lat="45.33045" lon="0.42866">
        <ele>194</ele>
        <time>2025-04-16T07:41:02Z</time>
      </trkpt>
      <trkpt lat="45.3307" lon="0.42878">
        <ele>194</ele>
        <time>2025-04-16T07:41:07Z</time>
      </trkpt>
      <trkpt lat="45.33107" lon="0.42906">
        <ele>192</ele>
        <time>2025-04-16T07:41:14Z</time>
      </trkpt>
      <trkpt lat="45.33132" lon="0.42916">
        <ele>190</ele>
        <time>2025-04-16T07:41:19Z</time>
      </trkpt>
      <trkpt lat="45.33177" lon="0.42925">
        <ele>186</ele>
        <time>2025-04-16T07:41:27Z</time>
      </trkpt>
      <trkpt lat="45.33226" lon="0.4293">
        <ele>184</ele>
        <time>2025-04-16T07:41:36Z</time>
      </trkpt>
      <trkpt lat="45.33243" lon="0.42935">
        <ele>183</ele>
        <time>2025-04-16T07:41:39Z</time>
      </trkpt>
      <trkpt lat="45.33272" lon="0.4295">
        <ele>182</ele>
        <time>2025-04-16T07:41:44Z</time>
      </trkpt>
      <trkpt lat="45.33373" lon="0.4303">
        <ele>176</ele>
        <time>2025-04-16T07:42:05Z</time>
      </trkpt>
      <trkpt lat="45.3339" lon="0.43047">
        <ele>175</ele>
        <time>2025-04-16T07:42:09Z</time>
      </trkpt>
      <trkpt lat="45.33401" lon="0.43065">
        <ele>175</ele>
        <time>2025-04-16T07:42:12Z</time>
      </trkpt>
      <trkpt lat="45.33408" lon="0.43085">
        <ele>174</ele>
        <time>2025-04-16T07:42:14Z</time>
      </trkpt>
      <trkpt lat="45.33414" lon="0.43114">
        <ele>173</ele>
        <time>2025-04-16T07:42:18Z</time>
      </trkpt>
      <trkpt lat="45.3343" lon="0.43227">
        <ele>169</ele>
        <time>2025-04-16T07:42:33Z</time>
      </trkpt>
      <trkpt lat="45.33441" lon="0.43251">
        <ele>168</ele>
        <time>2025-04-16T07:42:36Z</time>
      </trkpt>
      <trkpt lat="45.33448" lon="0.43265">
        <ele>167</ele>
        <time>2025-04-16T07:42:38Z</time>
      </trkpt>
      <trkpt lat="45.33459" lon="0.43277">
        <ele>166</ele>
        <time>2025-04-16T07:42:41Z</time>
      </trkpt>
      <trkpt lat="45.33471" lon="0.43285">
        <ele>166</ele>
        <time>2025-04-16T07:42:43Z</time>
      </trkpt>
      <trkpt lat="45.33482" lon="0.43291">
        <ele>165</ele>
        <time>2025-04-16T07:42:45Z</time>
      </trkpt>
      <trkpt lat="45.335" lon="0.43292">
        <ele>165</ele>
        <time>2025-04-16T07:42:49Z</time>
      </trkpt>
      <trkpt lat="45.33654" lon="0.43288">
        <ele>164</ele>
        <time>2025-04-16T07:43:16Z</time>
      </trkpt>
      <trkpt lat="45.33691" lon="0.4329">
        <ele>164</ele>
        <time>2025-04-16T07:43:23Z</time>
      </trkpt>
      <trkpt lat="45.33709" lon="0.43295">
        <ele>164</ele>
        <time>2025-04-16T07:43:26Z</time>
      </trkpt>
      <trkpt lat="45.3381" lon="0.43343">
        <ele>160</ele>
        <time>2025-04-16T07:43:45Z</time>
      </trkpt>
      <trkpt lat="45.33832" lon="0.43351">
        <ele>160</ele>
        <time>2025-04-16T07:43:49Z</time>
      </trkpt>
      <trkpt lat="45.33917" lon="0.43363">
        <ele>157</ele>
        <time>2025-04-16T07:44:04Z</time>
      </trkpt>
      <trkpt lat="45.33935" lon="0.43371">
        <ele>157</ele>
        <time>2025-04-16T07:44:07Z</time>
      </trkpt>
      <trkpt lat="45.33949" lon="0.43383">
        <ele>156</ele>
        <time>2025-04-16T07:44:10Z</time>
      </trkpt>
      <trkpt lat="45.33961" lon="0.43396">
        <ele>155</ele>
        <time>2025-04-16T07:44:13Z</time>
      </trkpt>
      <trkpt lat="45.33981" lon="0.43425">
        <ele>153</ele>
        <time>2025-04-16T07:44:18Z</time>
      </trkpt>
      <trkpt lat="45.34061" lon="0.43571">
        <ele>151</ele>
        <time>2025-04-16T07:44:41Z</time>
      </trkpt>
      <trkpt lat="45.34084" lon="0.43622">
        <ele>148</ele>
        <time>2025-04-16T07:44:49Z</time>
      </trkpt>
      <trkpt lat="45.3409" lon="0.43643">
        <ele>147</ele>
        <time>2025-04-16T07:44:52Z</time>
      </trkpt>
      <trkpt lat="45.34106" lon="0.43712">
        <ele>145</ele>
        <time>2025-04-16T07:45:01Z</time>
      </trkpt>
      <trkpt lat="45.34115" lon="0.43743">
        <ele>145</ele>
        <time>2025-04-16T07:45:05Z</time>
      </trkpt>
      <trkpt lat="45.34131" lon="0.43774">
        <ele>145</ele>
        <time>2025-04-16T07:45:10Z</time>
      </trkpt>
      <trkpt lat="45.34153" lon="0.43801">
        <ele>145</ele>
        <time>2025-04-16T07:45:15Z</time>
      </trkpt>
      <trkpt lat="45.34163" lon="0.43809">
        <ele>144</ele>
        <time>2025-04-16T07:45:17Z</time>
      </trkpt>
      <trkpt lat="45.34181" lon="0.43811">
        <ele>144</ele>
        <time>2025-04-16T07:45:20Z</time>
      </trkpt>
      <trkpt lat="45.34197" lon="0.43809">
        <ele>144</ele>
        <time>2025-04-16T07:45:23Z</time>
      </trkpt>
      <trkpt lat="45.34228" lon="0.438">
        <ele>145</ele>
        <time>2025-04-16T07:45:29Z</time>
      </trkpt>
      <trkpt lat="45.34264" lon="0.43797">
        <ele>146</ele>
        <time>2025-04-16T07:45:35Z</time>
      </trkpt>
      <trkpt lat="45.34287" lon="0.43806">
        <ele>146</ele>
        <time>2025-04-16T07:45:39Z</time>
      </trkpt>
      <trkpt lat="45.34338" lon="0.43832">
        <ele>146</ele>
        <time>2025-04-16T07:45:49Z</time>
      </trkpt>
      <trkpt lat="45.3436" lon="0.43841">
        <ele>146</ele>
        <time>2025-04-16T07:45:53Z</time>
      </trkpt>
      <trkpt lat="45.34375" lon="0.43843">
        <ele>146</ele>
        <time>2025-04-16T07:45:56Z</time>
      </trkpt>
      <trkpt lat="45.34392" lon="0.43842">
        <ele>147</ele>
        <time>2025-04-16T07:45:59Z</time>
      </trkpt>
      <trkpt lat="45.34457" lon="0.43831">
        <ele>147</ele>
        <time>2025-04-16T07:46:10Z</time>
      </trkpt>
      <trkpt lat="45.34475" lon="0.43831">
        <ele>146</ele>
        <time>2025-04-16T07:46:13Z</time>
      </trkpt>
      <trkpt lat="45.34492" lon="0.43835">
        <ele>145</ele>
        <time>2025-04-16T07:46:17Z</time>
      </trkpt>
      <trkpt lat="45.34508" lon="0.43842">
        <ele>144</ele>
        <time>2025-04-16T07:46:20Z</time>
      </trkpt>
      <trkpt lat="45.34538" lon="0.43859">
        <ele>143</ele>
        <time>2025-04-16T07:46:25Z</time>
      </trkpt>
      <trkpt lat="45.34561" lon="0.43877">
        <ele>141</ele>
        <time>2025-04-16T07:46:30Z</time>
      </trkpt>
      <trkpt lat="45.34501" lon="0.44109">
        <ele>143</ele>
        <time>2025-04-16T07:47:01Z</time>
      </trkpt>
      <trkpt lat="45.34457" lon="0.44264">
        <ele>143</ele>
        <time>2025-04-16T07:47:22Z</time>
      </trkpt>
      <trkpt lat="45.34425" lon="0.44346">
        <ele>140</ele>
        <time>2025-04-16T07:47:34Z</time>
      </trkpt>
      <trkpt lat="45.34318" lon="0.44543">
        <ele>137</ele>
        <time>2025-04-16T07:48:05Z</time>
      </trkpt>
      <trkpt lat="45.34256" lon="0.44668">
        <ele>141</ele>
        <time>2025-04-16T07:48:24Z</time>
      </trkpt>
      <trkpt lat="45.34232" lon="0.44764">
        <ele>140</ele>
        <time>2025-04-16T07:48:37Z</time>
      </trkpt>
      <trkpt lat="45.34227" lon="0.44821">
        <ele>138</ele>
        <time>2025-04-16T07:48:44Z</time>
      </trkpt>
      <trkpt lat="45.34226" lon="0.44892">
        <ele>136</ele>
        <time>2025-04-16T07:48:53Z</time>
      </trkpt>
      <trkpt lat="45.34231" lon="0.44965">
        <ele>136</ele>
        <time>2025-04-16T07:49:02Z</time>
      </trkpt>
      <trkpt lat="45.34231" lon="0.45004">
        <ele>137</ele>
        <time>2025-04-16T07:49:07Z</time>
      </trkpt>
      <trkpt lat="45.34225" lon="0.4506">
        <ele>138</ele>
        <time>2025-04-16T07:49:14Z</time>
      </trkpt>
      <trkpt lat="45.34203" lon="0.45142">
        <ele>138</ele>
        <time>2025-04-16T07:49:25Z</time>
      </trkpt>
      <trkpt lat="45.3418" lon="0.45218">
        <ele>140</ele>
        <time>2025-04-16T07:49:35Z</time>
      </trkpt>
      <trkpt lat="45.34178" lon="0.45251">
        <ele>141</ele>
        <time>2025-04-16T07:49:39Z</time>
      </trkpt>
      <trkpt lat="45.34179" lon="0.45301">
        <ele>141</ele>
        <time>2025-04-16T07:49:45Z</time>
      </trkpt>
      <trkpt lat="45.34189" lon="0.45427">
        <ele>139</ele>
        <time>2025-04-16T07:50:01Z</time>
      </trkpt>
      <trkpt lat="45.34185" lon="0.45469">
        <ele>139</ele>
        <time>2025-04-16T07:50:07Z</time>
      </trkpt>
      <trkpt lat="45.34168" lon="0.45546">
        <ele>136</ele>
        <time>2025-04-16T07:50:17Z</time>
      </trkpt>
      <trkpt lat="45.34162" lon="0.45589">
        <ele>135</ele>
        <time>2025-04-16T07:50:22Z</time>
      </trkpt>
      <trkpt lat="45.3416" lon="0.45636">
        <ele>135</ele>
        <time>2025-04-16T07:50:28Z</time>
      </trkpt>
      <trkpt lat="45.3416" lon="0.45701">
        <ele>135</ele>
        <time>2025-04-16T07:50:36Z</time>
      </trkpt>
      <trkpt lat="45.3418" lon="0.45852">
        <ele>136</ele>
        <time>2025-04-16T07:50:55Z</time>
      </trkpt>
      <trkpt lat="45.34182" lon="0.45875">
        <ele>136</ele>
        <time>2025-04-16T07:50:58Z</time>
      </trkpt>
      <trkpt lat="45.3418" lon="0.45896">
        <ele>136</ele>
        <time>2025-04-16T07:51:01Z</time>
      </trkpt>
      <trkpt lat="45.34153" lon="0.46">
        <ele>135</ele>
        <time>2025-04-16T07:51:15Z</time>
      </trkpt>
      <trkpt lat="45.34144" lon="0.46044">
        <ele>136</ele>
        <time>2025-04-16T07:51:21Z</time>
      </trkpt>
      <trkpt lat="45.34136" lon="0.4619">
        <ele>138</ele>
        <time>2025-04-16T07:51:39Z</time>
      </trkpt>
      <trkpt lat="45.34149" lon="0.46303">
        <ele>135</ele>
        <time>2025-04-16T07:51:53Z</time>
      </trkpt>
      <trkpt lat="45.3415" lon="0.46326">
        <ele>135</ele>
        <time>2025-04-16T07:51:56Z</time>
      </trkpt>
      <trkpt lat="45.34148" lon="0.46402">
        <ele>134</ele>
        <time>2025-04-16T07:52:06Z</time>
      </trkpt>
      <trkpt lat="45.34151" lon="0.4649">
        <ele>133</ele>
        <time>2025-04-16T07:52:17Z</time>
      </trkpt>
      <trkpt lat="45.34154" lon="0.46516">
        <ele>132</ele>
        <time>2025-04-16T07:52:20Z</time>
      </trkpt>
      <trkpt lat="45.34162" lon="0.46541">
        <ele>131</ele>
        <time>2025-04-16T07:52:23Z</time>
      </trkpt>
      <trkpt lat="45.34178" lon="0.46563">
        <ele>130</ele>
        <time>2025-04-16T07:52:27Z</time>
      </trkpt>
      <trkpt lat="45.34206" lon="0.46616">
        <ele>128</ele>
        <time>2025-04-16T07:52:36Z</time>
      </trkpt>
      <trkpt lat="45.34211" lon="0.46635">
        <ele>128</ele>
        <time>2025-04-16T07:52:38Z</time>
      </trkpt>
      <trkpt lat="45.3422" lon="0.46731">
        <ele>127</ele>
        <time>2025-04-16T07:52:50Z</time>
      </trkpt>
      <trkpt lat="45.34226" lon="0.46771">
        <ele>127</ele>
        <time>2025-04-16T07:52:55Z</time>
      </trkpt>
      <trkpt lat="45.34236" lon="0.46807">
        <ele>126</ele>
        <time>2025-04-16T07:53:00Z</time>
      </trkpt>
      <trkpt lat="45.34238" lon="0.4682">
        <ele>126</ele>
        <time>2025-04-16T07:53:02Z</time>
      </trkpt>
      <trkpt lat="45.34239" lon="0.46833">
        <ele>126</ele>
        <time>2025-04-16T07:53:03Z</time>
      </trkpt>
      <trkpt lat="45.34213" lon="0.46965">
        <ele>127</ele>
        <time>2025-04-16T07:53:21Z</time>
      </trkpt>
      <trkpt lat="45.342" lon="0.47045">
        <ele>127</ele>
        <time>2025-04-16T07:53:31Z</time>
      </trkpt>
      <trkpt lat="45.3421" lon="0.47183">
        <ele>127</ele>
        <time>2025-04-16T07:53:48Z</time>
      </trkpt>
      <trkpt lat="45.34196" lon="0.47238">
        <ele>129</ele>
        <time>2025-04-16T07:53:56Z</time>
      </trkpt>
      <trkpt lat="45.34191" lon="0.47284">
        <ele>129</ele>
        <time>2025-04-16T07:54:01Z</time>
      </trkpt>
      <trkpt lat="45.34193" lon="0.47322">
        <ele>129</ele>
        <time>2025-04-16T07:54:06Z</time>
      </trkpt>
      <trkpt lat="45.34201" lon="0.474">
        <ele>128</ele>
        <time>2025-04-16T07:54:16Z</time>
      </trkpt>
      <trkpt lat="45.34205" lon="0.47604">
        <ele>126</ele>
        <time>2025-04-16T07:54:42Z</time>
      </trkpt>
      <trkpt lat="45.34211" lon="0.47627">
        <ele>125</ele>
        <time>2025-04-16T07:54:45Z</time>
      </trkpt>
      <trkpt lat="45.34269" lon="0.47762">
        <ele>124</ele>
        <time>2025-04-16T07:55:04Z</time>
      </trkpt>
      <trkpt lat="45.34274" lon="0.47773">
        <ele>124</ele>
        <time>2025-04-16T07:55:06Z</time>
      </trkpt>
      <trkpt lat="45.3428" lon="0.47792">
        <ele>124</ele>
        <time>2025-04-16T07:55:09Z</time>
      </trkpt>
      <trkpt lat="45.34284" lon="0.47814">
        <ele>124</ele>
        <time>2025-04-16T07:55:11Z</time>
      </trkpt>
      <trkpt lat="45.34286" lon="0.47843">
        <ele>124</ele>
        <time>2025-04-16T07:55:15Z</time>
      </trkpt>
      <trkpt lat="45.34282" lon="0.47965">
        <ele>122</ele>
        <time>2025-04-16T07:55:30Z</time>
      </trkpt>
      <trkpt lat="45.34269" lon="0.48189">
        <ele>119</ele>
        <time>2025-04-16T07:55:58Z</time>
      </trkpt>
      <trkpt lat="45.34265" lon="0.48229">
        <ele>119</ele>
        <time>2025-04-16T07:56:04Z</time>
      </trkpt>
      <trkpt lat="45.3425" lon="0.48264">
        <ele>120</ele>
        <time>2025-04-16T07:56:09Z</time>
      </trkpt>
      <trkpt lat="45.34215" lon="0.4831">
        <ele>121</ele>
        <time>2025-04-16T07:56:17Z</time>
      </trkpt>
      <trkpt lat="45.34184" lon="0.48342">
        <ele>120</ele>
        <time>2025-04-16T07:56:24Z</time>
      </trkpt>
      <trkpt lat="45.34158" lon="0.48362">
        <ele>120</ele>
        <time>2025-04-16T07:56:29Z</time>
      </trkpt>
      <trkpt lat="45.34146" lon="0.48367">
        <ele>120</ele>
        <time>2025-04-16T07:56:31Z</time>
      </trkpt>
      <trkpt lat="45.341" lon="0.48402">
        <ele>120</ele>
        <time>2025-04-16T07:56:41Z</time>
      </trkpt>
      <trkpt lat="45.3408" lon="0.48432">
        <ele>119</ele>
        <time>2025-04-16T07:56:46Z</time>
      </trkpt>
      <trkpt lat="45.34065" lon="0.48464">
        <ele>118</ele>
        <time>2025-04-16T07:56:51Z</time>
      </trkpt>
      <trkpt lat="45.34056" lon="0.485">
        <ele>118</ele>
        <time>2025-04-16T07:56:55Z</time>
      </trkpt>
      <trkpt lat="45.34003" lon="0.48787">
        <ele>116</ele>
        <time>2025-04-16T07:57:33Z</time>
      </trkpt>
      <trkpt lat="45.33989" lon="0.48849">
        <ele>116</ele>
        <time>2025-04-16T07:57:41Z</time>
      </trkpt>
      <trkpt lat="45.33951" lon="0.48954">
        <ele>117</ele>
        <time>2025-04-16T07:57:56Z</time>
      </trkpt>
      <trkpt lat="45.33937" lon="0.49006">
        <ele>116</ele>
        <time>2025-04-16T07:58:02Z</time>
      </trkpt>
      <trkpt lat="45.33912" lon="0.49113">
        <ele>112</ele>
        <time>2025-04-16T07:58:17Z</time>
      </trkpt>
      <trkpt lat="45.33852" lon="0.49349">
        <ele>114</ele>
        <time>2025-04-16T07:58:48Z</time>
      </trkpt>
      <trkpt lat="45.33768" lon="0.496">
        <ele>112</ele>
        <time>2025-04-16T07:59:23Z</time>
      </trkpt>
      <trkpt lat="45.33742" lon="0.49658">
        <ele>112</ele>
        <time>2025-04-16T07:59:31Z</time>
      </trkpt>
      <trkpt lat="45.33729" lon="0.49679">
        <ele>112</ele>
        <time>2025-04-16T07:59:35Z</time>
      </trkpt>
      <trkpt lat="45.33713" lon="0.49703">
        <ele>112</ele>
        <time>2025-04-16T07:59:39Z</time>
      </trkpt>
      <trkpt lat="45.33628" lon="0.49804">
        <ele>109</ele>
        <time>2025-04-16T07:59:59Z</time>
      </trkpt>
      <trkpt lat="45.33497" lon="0.49991">
        <ele>107</ele>
        <time>2025-04-16T08:00:32Z</time>
      </trkpt>
      <trkpt lat="45.33474" lon="0.50037">
        <ele>107</ele>
        <time>2025-04-16T08:00:39Z</time>
      </trkpt>
      <trkpt lat="45.33453" lon="0.501">
        <ele>106</ele>
        <time>2025-04-16T08:00:47Z</time>
      </trkpt>
      <trkpt lat="45.3344" lon="0.50148">
        <ele>105</ele>
        <time>2025-04-16T08:00:54Z</time>
      </trkpt>
      <trkpt lat="45.33436" lon="0.50201">
        <ele>104</ele>
        <time>2025-04-16T08:01:01Z</time>
      </trkpt>
      <trkpt lat="45.33436" lon="0.50248">
        <ele>103</ele>
        <time>2025-04-16T08:01:06Z</time>
      </trkpt>
      <trkpt lat="45.33432" lon="0.50305">
        <ele>101</ele>
        <time>2025-04-16T08:01:14Z</time>
      </trkpt>
      <trkpt lat="45.33428" lon="0.50329">
        <ele>100</ele>
        <time>2025-04-16T08:01:17Z</time>
      </trkpt>
      <trkpt lat="45.33435" lon="0.5035">
        <ele>101</ele>
        <time>2025-04-16T08:01:20Z</time>
      </trkpt>
      <trkpt lat="45.33501" lon="0.50499">
        <ele>104</ele>
        <time>2025-04-16T08:01:42Z</time>
      </trkpt>
      <trkpt lat="45.33505" lon="0.50503">
        <ele>104</ele>
        <time>2025-04-16T08:01:43Z</time>
      </trkpt>
      <trkpt lat="45.33495" lon="0.50532">
        <ele>105</ele>
        <time>2025-04-16T08:01:47Z</time>
      </trkpt>
      <trkpt lat="45.33472" lon="0.50619">
        <ele>106</ele>
        <time>2025-04-16T08:01:58Z</time>
      </trkpt>
      <trkpt lat="45.33469" lon="0.50631">
        <ele>106</ele>
        <time>2025-04-16T08:02:00Z</time>
      </trkpt>
      <trkpt lat="45.33448" lon="0.50715">
        <ele>106</ele>
        <time>2025-04-16T08:02:11Z</time>
      </trkpt>
      <trkpt lat="45.33435" lon="0.50739">
        <ele>106</ele>
        <time>2025-04-16T08:02:15Z</time>
      </trkpt>
      <trkpt lat="45.33427" lon="0.50749">
        <ele>106</ele>
        <time>2025-04-16T08:02:17Z</time>
      </trkpt>
      <trkpt lat="45.33412" lon="0.50759">
        <ele>106</ele>
        <time>2025-04-16T08:02:20Z</time>
      </trkpt>
      <trkpt lat="45.33396" lon="0.50765">
        <ele>106</ele>
        <time>2025-04-16T08:02:23Z</time>
      </trkpt>
      <trkpt lat="45.33269" lon="0.50797">
        <ele>105</ele>
        <time>2025-04-16T08:02:45Z</time>
      </trkpt>
      <trkpt lat="45.33245" lon="0.50807">
        <ele>104</ele>
        <time>2025-04-16T08:02:50Z</time>
      </trkpt>
      <trkpt lat="45.33219" lon="0.5083">
        <ele>103</ele>
        <time>2025-04-16T08:02:55Z</time>
      </trkpt>
      <trkpt lat="45.33195" lon="0.50861">
        <ele>104</ele>
        <time>2025-04-16T08:03:01Z</time>
      </trkpt>
      <trkpt lat="45.33122" lon="0.50969">
        <ele>105</ele>
        <time>2025-04-16T08:03:20Z</time>
      </trkpt>
      <trkpt lat="45.33039" lon="0.51074">
        <ele>103</ele>
        <time>2025-04-16T08:03:40Z</time>
      </trkpt>
      <trkpt lat="45.33004" lon="0.51111">
        <ele>104</ele>
        <time>2025-04-16T08:03:47Z</time>
      </trkpt>
      <trkpt lat="45.32983" lon="0.51126">
        <ele>104</ele>
        <time>2025-04-16T08:03:52Z</time>
      </trkpt>
      <trkpt lat="45.32919" lon="0.51158">
        <ele>106</ele>
        <time>2025-04-16T08:04:04Z</time>
      </trkpt>
      <trkpt lat="45.3289" lon="0.51169">
        <ele>106</ele>
        <time>2025-04-16T08:04:09Z</time>
      </trkpt>
      <trkpt lat="45.32865" lon="0.51177">
        <ele>106</ele>
        <time>2025-04-16T08:04:14Z</time>
      </trkpt>
      <trkpt lat="45.32778" lon="0.51186">
        <ele>104</ele>
        <time>2025-04-16T08:04:29Z</time>
      </trkpt>
      <trkpt lat="45.32766" lon="0.5119">
        <ele>104</ele>
        <time>2025-04-16T08:04:31Z</time>
      </trkpt>
      <trkpt lat="45.32742" lon="0.51204">
        <ele>104</ele>
        <time>2025-04-16T08:04:36Z</time>
      </trkpt>
      <trkpt lat="45.32729" lon="0.51217">
        <ele>105</ele>
        <time>2025-04-16T08:04:39Z</time>
      </trkpt>
      <trkpt lat="45.32719" lon="0.51231">
        <ele>105</ele>
        <time>2025-04-16T08:04:41Z</time>
      </trkpt>
      <trkpt lat="45.32702" lon="0.51261">
        <ele>105</ele>
        <time>2025-04-16T08:04:46Z</time>
      </trkpt>
      <trkpt lat="45.32689" lon="0.51288">
        <ele>105</ele>
        <time>2025-04-16T08:04:50Z</time>
      </trkpt>
      <trkpt lat="45.3267" lon="0.51344">
        <ele>104</ele>
        <time>2025-04-16T08:04:58Z</time>
      </trkpt>
      <trkpt lat="45.32661" lon="0.5138">
        <ele>105</ele>
        <time>2025-04-16T08:05:03Z</time>
      </trkpt>
      <trkpt lat="45.32654" lon="0.51418">
        <ele>105</ele>
        <time>2025-04-16T08:05:08Z</time>
      </trkpt>
      <trkpt lat="45.32652" lon="0.51457">
        <ele>104</ele>
        <time>2025-04-16T08:05:12Z</time>
      </trkpt>
      <trkpt lat="45.32655" lon="0.51535">
        <ele>102</ele>
        <time>2025-04-16T08:05:22Z</time>
      </trkpt>
      <trkpt lat="45.32662" lon="0.51611">
        <ele>102</ele>
        <time>2025-04-16T08:05:32Z</time>
      </trkpt>
      <trkpt lat="45.32662" lon="0.51662">
        <ele>102</ele>
        <time>2025-04-16T08:05:38Z</time>
      </trkpt>
      <trkpt lat="45.32645" lon="0.51789">
        <ele>102</ele>
        <time>2025-04-16T08:05:54Z</time>
      </trkpt>
      <trkpt lat="45.32637" lon="0.51833">
        <ele>101</ele>
        <time>2025-04-16T08:06:00Z</time>
      </trkpt>
      <trkpt lat="45.32629" lon="0.51859">
        <ele>100</ele>
        <time>2025-04-16T08:06:04Z</time>
      </trkpt>
      <trkpt lat="45.32618" lon="0.51888">
        <ele>99</ele>
        <time>2025-04-16T08:06:08Z</time>
      </trkpt>
      <trkpt lat="45.32606" lon="0.5191">
        <ele>98</ele>
        <time>2025-04-16T08:06:11Z</time>
      </trkpt>
      <trkpt lat="45.32596" lon="0.51924">
        <ele>98</ele>
        <time>2025-04-16T08:06:14Z</time>
      </trkpt>
      <trkpt lat="45.32562" lon="0.5196">
        <ele>100</ele>
        <time>2025-04-16T08:06:21Z</time>
      </trkpt>
      <trkpt lat="45.32511" lon="0.52022">
        <ele>102</ele>
        <time>2025-04-16T08:06:33Z</time>
      </trkpt>
      <trkpt lat="45.32463" lon="0.52093">
        <ele>103</ele>
        <time>2025-04-16T08:06:46Z</time>
      </trkpt>
      <trkpt lat="45.32431" lon="0.5216">
        <ele>102</ele>
        <time>2025-04-16T08:06:56Z</time>
      </trkpt>
      <trkpt lat="45.32414" lon="0.52188">
        <ele>102</ele>
        <time>2025-04-16T08:07:00Z</time>
      </trkpt>
      <trkpt lat="45.32392" lon="0.52216">
        <ele>102</ele>
        <time>2025-04-16T08:07:06Z</time>
      </trkpt>
      <trkpt lat="45.32421" lon="0.5224">
        <ele>104</ele>
        <time>2025-04-16T08:07:12Z</time>
      </trkpt>
      <trkpt lat="45.32421" lon="0.5225">
        <ele>104</ele>
        <time>2025-04-16T08:07:13Z</time>
      </trkpt>
      <trkpt lat="45.32412" lon="0.52275">
        <ele>105</ele>
        <time>2025-04-16T08:07:16Z</time>
      </trkpt>
      <trkpt lat="45.32411" lon="0.52291">
        <ele>106</ele>
        <time>2025-04-16T08:07:18Z</time>
      </trkpt>
      <trkpt lat="45.32412" lon="0.52308">
        <ele>106</ele>
        <time>2025-04-16T08:07:20Z</time>
      </trkpt>
      <trkpt lat="45.32407" lon="0.52331">
        <ele>107</ele>
        <time>2025-04-16T08:07:23Z</time>
      </trkpt>
      <trkpt lat="45.32407" lon="0.52341">
        <ele>108</ele>
        <time>2025-04-16T08:07:25Z</time>
      </trkpt>
      <trkpt lat="45.32419" lon="0.52361">
        <ele>109</ele>
        <time>2025-04-16T08:07:28Z</time>
      </trkpt>
      <trkpt lat="45.3243" lon="0.52373">
        <ele>110</ele>
        <time>2025-04-16T08:07:30Z</time>
      </trkpt>
      <trkpt lat="45.32442" lon="0.52374">
        <ele>111</ele>
        <time>2025-04-16T08:07:33Z</time>
      </trkpt>
      <trkpt lat="45.32452" lon="0.52366">
        <ele>111</ele>
        <time>2025-04-16T08:07:35Z</time>
      </trkpt>
      <trkpt lat="45.32461" lon="0.52346">
        <ele>111</ele>
        <time>2025-04-16T08:07:38Z</time>
      </trkpt>
      <trkpt lat="45.32475" lon="0.52329">
        <ele>111</ele>
        <time>2025-04-16T08:07:41Z</time>
      </trkpt>
      <trkpt lat="45.32482" lon="0.52327">
        <ele>111</ele>
        <time>2025-04-16T08:07:42Z</time>
      </trkpt>
      <trkpt lat="45.32497" lon="0.52363">
        <ele>113</ele>
        <time>2025-04-16T08:07:47Z</time>
      </trkpt>
      <trkpt lat="45.32496" lon="0.52379">
        <ele>113</ele>
        <time>2025-04-16T08:07:49Z</time>
      </trkpt>
      <trkpt lat="45.32508" lon="0.52402">
        <ele>114</ele>
        <time>2025-04-16T08:07:53Z</time>
      </trkpt>
      <trkpt lat="45.32568" lon="0.52484">
        <ele>120</ele>
        <time>2025-04-16T08:08:08Z</time>
      </trkpt>
      <trkpt lat="45.32586" lon="0.52537">
        <ele>123</ele>
        <time>2025-04-16T08:08:15Z</time>
      </trkpt>
      <trkpt lat="45.3261" lon="0.52596">
        <ele>124</ele>
        <time>2025-04-16T08:08:24Z</time>
      </trkpt>
      <trkpt lat="45.32608" lon="0.52639">
        <ele>126</ele>
        <time>2025-04-16T08:08:29Z</time>
      </trkpt>
      <trkpt lat="45.32698" lon="0.5269">
        <ele>127</ele>
        <time>2025-04-16T08:08:46Z</time>
      </trkpt>
      <trkpt lat="45.32715" lon="0.52704">
        <ele>128</ele>
        <time>2025-04-16T08:08:50Z</time>
      </trkpt>
      <trkpt lat="45.32729" lon="0.52719">
        <ele>128</ele>
        <time>2025-04-16T08:08:53Z</time>
      </trkpt>
      <trkpt lat="45.32744" lon="0.52741">
        <ele>128</ele>
        <time>2025-04-16T08:08:57Z</time>
      </trkpt>
      <trkpt lat="45.32774" lon="0.52796">
        <ele>129</ele>
        <time>2025-04-16T08:09:05Z</time>
      </trkpt>
      <trkpt lat="45.3279" lon="0.52823">
        <ele>130</ele>
        <time>2025-04-16T08:09:10Z</time>
      </trkpt>
      <trkpt lat="45.32805" lon="0.52842">
        <ele>130</ele>
        <time>2025-04-16T08:09:13Z</time>
      </trkpt>
      <trkpt lat="45.32821" lon="0.52857">
        <ele>131</ele>
        <time>2025-04-16T08:09:17Z</time>
      </trkpt>
      <trkpt lat="45.32842" lon="0.52872">
        <ele>133</ele>
        <time>2025-04-16T08:09:21Z</time>
      </trkpt>
      <trkpt lat="45.32889" lon="0.52897">
        <ele>136</ele>
        <time>2025-04-16T08:09:30Z</time>
      </trkpt>
      <trkpt lat="45.32914" lon="0.52918">
        <ele>137</ele>
        <time>2025-04-16T08:09:35Z</time>
      </trkpt>
      <trkpt lat="45.32934" lon="0.5294">
        <ele>139</ele>
        <time>2025-04-16T08:09:40Z</time>
      </trkpt>
      <trkpt lat="45.32964" lon="0.52987">
        <ele>140</ele>
        <time>2025-04-16T08:09:48Z</time>
      </trkpt>
      <trkpt lat="45.32982" lon="0.5302">
        <ele>140</ele>
        <time>2025-04-16T08:09:53Z</time>
      </trkpt>
      <trkpt lat="45.33002" lon="0.53069">
        <ele>140</ele>
        <time>2025-04-16T08:10:00Z</time>
      </trkpt>
      <trkpt lat="45.33029" lon="0.53135">
        <ele>141</ele>
        <time>2025-04-16T08:10:09Z</time>
      </trkpt>
      <trkpt lat="45.33039" lon="0.53158">
        <ele>141</ele>
        <time>2025-04-16T08:10:13Z</time>
      </trkpt>
      <trkpt lat="45.33073" lon="0.53217">
        <ele>140</ele>
        <time>2025-04-16T08:10:22Z</time>
      </trkpt>
      <trkpt lat="45.33116" lon="0.53285">
        <ele>138</ele>
        <time>2025-04-16T08:10:34Z</time>
      </trkpt>
      <trkpt lat="45.33135" lon="0.53311">
        <ele>137</ele>
        <time>2025-04-16T08:10:38Z</time>
      </trkpt>
      <trkpt lat="45.33246" lon="0.53438">
        <ele>137</ele>
        <time>2025-04-16T08:11:04Z</time>
      </trkpt>
      <trkpt lat="45.3327" lon="0.53464">
        <ele>138</ele>
        <time>2025-04-16T08:11:09Z</time>
      </trkpt>
      <trkpt lat="45.33296" lon="0.53485">
        <ele>138</ele>
        <time>2025-04-16T08:11:15Z</time>
      </trkpt>
      <trkpt lat="45.33387" lon="0.53506">
        <ele>139</ele>
        <time>2025-04-16T08:11:31Z</time>
      </trkpt>
      <trkpt lat="45.33407" lon="0.53513">
        <ele>139</ele>
        <time>2025-04-16T08:11:35Z</time>
      </trkpt>
      <trkpt lat="45.33465" lon="0.53544">
        <ele>138</ele>
        <time>2025-04-16T08:11:46Z</time>
      </trkpt>
      <trkpt lat="45.33478" lon="0.53548">
        <ele>138</ele>
        <time>2025-04-16T08:11:48Z</time>
      </trkpt>
      <trkpt lat="45.33572" lon="0.5356">
        <ele>136</ele>
        <time>2025-04-16T08:12:05Z</time>
      </trkpt>
      <trkpt lat="45.33738" lon="0.5361">
        <ele>132</ele>
        <time>2025-04-16T08:12:35Z</time>
      </trkpt>
      <trkpt lat="45.33786" lon="0.53619">
        <ele>132</ele>
        <time>2025-04-16T08:12:44Z</time>
      </trkpt>
      <trkpt lat="45.33931" lon="0.5361">
        <ele>133</ele>
        <time>2025-04-16T08:13:09Z</time>
      </trkpt>
      <trkpt lat="45.33952" lon="0.53612">
        <ele>133</ele>
        <time>2025-04-16T08:13:13Z</time>
      </trkpt>
      <trkpt lat="45.34037" lon="0.53627">
        <ele>132</ele>
        <time>2025-04-16T08:13:28Z</time>
      </trkpt>
      <trkpt lat="45.34055" lon="0.53635">
        <ele>132</ele>
        <time>2025-04-16T08:13:32Z</time>
      </trkpt>
      <trkpt lat="45.34148" lon="0.53704">
        <ele>134</ele>
        <time>2025-04-16T08:13:50Z</time>
      </trkpt>
      <trkpt lat="45.34215" lon="0.53737">
        <ele>137</ele>
        <time>2025-04-16T08:14:03Z</time>
      </trkpt>
      <trkpt lat="45.34232" lon="0.53747">
        <ele>138</ele>
        <time>2025-04-16T08:14:06Z</time>
      </trkpt>
      <trkpt lat="45.34288" lon="0.53792">
        <ele>140</ele>
        <time>2025-04-16T08:14:18Z</time>
      </trkpt>
      <trkpt lat="45.34307" lon="0.53804">
        <ele>141</ele>
        <time>2025-04-16T08:14:21Z</time>
      </trkpt>
      <trkpt lat="45.34405" lon="0.53831">
        <ele>145</ele>
        <time>2025-04-16T08:14:39Z</time>
      </trkpt>
      <trkpt lat="45.34416" lon="0.53827">
        <ele>145</ele>
        <time>2025-04-16T08:14:41Z</time>
      </trkpt>
      <trkpt lat="45.34475" lon="0.53802">
        <ele>144</ele>
        <time>2025-04-16T08:14:52Z</time>
      </trkpt>
      <trkpt lat="45.345" lon="0.53796">
        <ele>144</ele>
        <time>2025-04-16T08:14:57Z</time>
      </trkpt>
      <trkpt lat="45.34518" lon="0.53796">
        <ele>144</ele>
        <time>2025-04-16T08:15:00Z</time>
      </trkpt>
      <trkpt lat="45.34551" lon="0.53802">
        <ele>144</ele>
        <time>2025-04-16T08:15:06Z</time>
      </trkpt>
      <trkpt lat="45.34585" lon="0.53804">
        <ele>143</ele>
        <time>2025-04-16T08:15:12Z</time>
      </trkpt>
      <trkpt lat="45.34638" lon="0.53792">
        <ele>146</ele>
        <time>2025-04-16T08:15:21Z</time>
      </trkpt>
      <trkpt lat="45.34645" lon="0.53794">
        <ele>146</ele>
        <time>2025-04-16T08:15:23Z</time>
      </trkpt>
      <trkpt lat="45.3466" lon="0.53805">
        <ele>147</ele>
        <time>2025-04-16T08:15:26Z</time>
      </trkpt>
      <trkpt lat="45.34692" lon="0.53859">
        <ele>147</ele>
        <time>2025-04-16T08:15:34Z</time>
      </trkpt>
      <trkpt lat="45.34709" lon="0.53884">
        <ele>148</ele>
        <time>2025-04-16T08:15:39Z</time>
      </trkpt>
      <trkpt lat="45.34815" lon="0.53966">
        <ele>150</ele>
        <time>2025-04-16T08:16:00Z</time>
      </trkpt>
      <trkpt lat="45.34812" lon="0.53981">
        <ele>150</ele>
        <time>2025-04-16T08:16:02Z</time>
      </trkpt>
      <trkpt lat="45.34811" lon="0.54001">
        <ele>150</ele>
        <time>2025-04-16T08:16:05Z</time>
      </trkpt>
      <trkpt lat="45.34815" lon="0.54196">
        <ele>151</ele>
        <time>2025-04-16T08:16:29Z</time>
      </trkpt>
      <trkpt lat="45.34817" lon="0.54226">
        <ele>152</ele>
        <time>2025-04-16T08:16:33Z</time>
      </trkpt>
      <trkpt lat="45.34822" lon="0.54248">
        <ele>152</ele>
        <time>2025-04-16T08:16:36Z</time>
      </trkpt>
      <trkpt lat="45.34829" lon="0.5427">
        <ele>153</ele>
        <time>2025-04-16T08:16:39Z</time>
      </trkpt>
      <trkpt lat="45.34892" lon="0.54401">
        <ele>161</ele>
        <time>2025-04-16T08:16:59Z</time>
      </trkpt>
      <trkpt lat="45.34909" lon="0.54458">
        <ele>158</ele>
        <time>2025-04-16T08:17:06Z</time>
      </trkpt>
      <trkpt lat="45.34918" lon="0.54482">
        <ele>157</ele>
        <time>2025-04-16T08:17:10Z</time>
      </trkpt>
      <trkpt lat="45.34943" lon="0.54517">
        <ele>154</ele>
        <time>2025-04-16T08:17:16Z</time>
      </trkpt>
      <trkpt lat="45.3496" lon="0.54534">
        <ele>152</ele>
        <time>2025-04-16T08:17:20Z</time>
      </trkpt>
      <trkpt lat="45.34976" lon="0.54544">
        <ele>151</ele>
        <time>2025-04-16T08:17:23Z</time>
      </trkpt>
      <trkpt lat="45.35013" lon="0.54557">
        <ele>149</ele>
        <time>2025-04-16T08:17:30Z</time>
      </trkpt>
      <trkpt lat="45.35034" lon="0.54566">
        <ele>146</ele>
        <time>2025-04-16T08:17:34Z</time>
      </trkpt>
      <trkpt lat="45.3506" lon="0.54585">
        <ele>143</ele>
        <time>2025-04-16T08:17:39Z</time>
      </trkpt>
      <trkpt lat="45.35079" lon="0.54604">
        <ele>141</ele>
        <time>2025-04-16T08:17:43Z</time>
      </trkpt>
      <trkpt lat="45.35102" lon="0.54633">
        <ele>139</ele>
        <time>2025-04-16T08:17:48Z</time>
      </trkpt>
      <trkpt lat="45.35111" lon="0.5465">
        <ele>138</ele>
        <time>2025-04-16T08:17:51Z</time>
      </trkpt>
      <trkpt lat="45.35118" lon="0.54666">
        <ele>137</ele>
        <time>2025-04-16T08:17:53Z</time>
      </trkpt>
      <trkpt lat="45.35121" lon="0.54686">
        <ele>136</ele>
        <time>2025-04-16T08:17:56Z</time>
      </trkpt>
      <trkpt lat="45.35129" lon="0.54779">
        <ele>133</ele>
        <time>2025-04-16T08:18:08Z</time>
      </trkpt>
      <trkpt lat="45.35149" lon="0.54847">
        <ele>130</ele>
        <time>2025-04-16T08:18:17Z</time>
      </trkpt>
      <trkpt lat="45.35155" lon="0.5488">
        <ele>129</ele>
        <time>2025-04-16T08:18:21Z</time>
      </trkpt>
      <trkpt lat="45.35163" lon="0.55024">
        <ele>124</ele>
        <time>2025-04-16T08:18:39Z</time>
      </trkpt>
      <trkpt lat="45.35176" lon="0.55198">
        <ele>117</ele>
        <time>2025-04-16T08:19:01Z</time>
      </trkpt>
      <trkpt lat="45.35197" lon="0.55211">
        <ele>117</ele>
        <time>2025-04-16T08:19:05Z</time>
      </trkpt>
      <trkpt lat="45.35213" lon="0.55224">
        <ele>117</ele>
        <time>2025-04-16T08:19:08Z</time>
      </trkpt>
      <trkpt lat="45.35233" lon="0.55236">
        <ele>117</ele>
        <time>2025-04-16T08:19:12Z</time>
      </trkpt>
      <trkpt lat="45.35243" lon="0.55246">
        <ele>116</ele>
        <time>2025-04-16T08:19:14Z</time>
      </trkpt>
      <trkpt lat="45.35244" lon="0.55269">
        <ele>115</ele>
        <time>2025-04-16T08:19:17Z</time>
      </trkpt>
      <trkpt lat="45.35257" lon="0.55273">
        <ele>115</ele>
        <time>2025-04-16T08:19:20Z</time>
      </trkpt>
      <trkpt lat="45.35274" lon="0.55291">
        <ele>113</ele>
        <time>2025-04-16T08:19:23Z</time>
      </trkpt>
      <trkpt lat="45.35281" lon="0.55306">
        <ele>112</ele>
        <time>2025-04-16T08:19:26Z</time>
      </trkpt>
      <trkpt lat="45.35267" lon="0.55355">
        <ele>109</ele>
        <time>2025-04-16T08:19:32Z</time>
      </trkpt>
      <trkpt lat="45.35263" lon="0.55387">
        <ele>107</ele>
        <time>2025-04-16T08:19:36Z</time>
      </trkpt>
      <trkpt lat="45.35346" lon="0.55528">
        <ele>104</ele>
        <time>2025-04-16T08:19:59Z</time>
      </trkpt>
      <trkpt lat="45.3537" lon="0.55572">
        <ele>105</ele>
        <time>2025-04-16T08:20:06Z</time>
      </trkpt>
      <trkpt lat="45.35392" lon="0.55605">
        <ele>106</ele>
        <time>2025-04-16T08:20:12Z</time>
      </trkpt>
      <trkpt lat="45.35405" lon="0.55619">
        <ele>106</ele>
        <time>2025-04-16T08:20:15Z</time>
      </trkpt>
      <trkpt lat="45.35609" lon="0.55795">
        <ele>109</ele>
        <time>2025-04-16T08:20:57Z</time>
      </trkpt>
      <trkpt lat="45.35661" lon="0.55831">
        <ele>107</ele>
        <time>2025-04-16T08:21:08Z</time>
      </trkpt>
      <trkpt lat="45.35767" lon="0.55879">
        <ele>113</ele>
        <time>2025-04-16T08:21:27Z</time>
      </trkpt>
      <trkpt lat="45.35782" lon="0.5589">
        <ele>111</ele>
        <time>2025-04-16T08:21:31Z</time>
      </trkpt>
      <trkpt lat="45.35796" lon="0.55923">
        <ele>107</ele>
        <time>2025-04-16T08:21:35Z</time>
      </trkpt>
      <trkpt lat="45.35798" lon="0.55941">
        <ele>106</ele>
        <time>2025-04-16T08:21:38Z</time>
      </trkpt>
      <trkpt lat="45.35807" lon="0.56016">
        <ele>105</ele>
        <time>2025-04-16T08:21:47Z</time>
      </trkpt>
      <trkpt lat="45.35837" lon="0.56234">
        <ele>115</ele>
        <time>2025-04-16T08:22:15Z</time>
      </trkpt>
      <trkpt lat="45.3584" lon="0.5631">
        <ele>121</ele>
        <time>2025-04-16T08:22:24Z</time>
      </trkpt>
      <trkpt lat="45.35827" lon="0.56414">
        <ele>126</ele>
        <time>2025-04-16T08:22:38Z</time>
      </trkpt>
      <trkpt lat="45.35827" lon="0.56469">
        <ele>126</ele>
        <time>2025-04-16T08:22:44Z</time>
      </trkpt>
      <trkpt lat="45.35835" lon="0.5652">
        <ele>125</ele>
        <time>2025-04-16T08:22:51Z</time>
      </trkpt>
      <trkpt lat="45.35835" lon="0.56562">
        <ele>123</ele>
        <time>2025-04-16T08:22:56Z</time>
      </trkpt>
      <trkpt lat="45.35824" lon="0.56617">
        <ele>124</ele>
        <time>2025-04-16T08:23:03Z</time>
      </trkpt>
      <trkpt lat="45.35796" lon="0.56701">
        <ele>129</ele>
        <time>2025-04-16T08:23:15Z</time>
      </trkpt>
      <trkpt lat="45.3576" lon="0.5676">
        <ele>131</ele>
        <time>2025-04-16T08:23:25Z</time>
      </trkpt>
      <trkpt lat="45.35739" lon="0.56817">
        <ele>131</ele>
        <time>2025-04-16T08:23:33Z</time>
      </trkpt>
      <trkpt lat="45.35744" lon="0.56873">
        <ele>131</ele>
        <time>2025-04-16T08:23:40Z</time>
      </trkpt>
      <trkpt lat="45.35745" lon="0.56936">
        <ele>133</ele>
        <time>2025-04-16T08:23:48Z</time>
      </trkpt>
      <trkpt lat="45.35737" lon="0.5701">
        <ele>138</ele>
        <time>2025-04-16T08:23:57Z</time>
      </trkpt>
      <trkpt lat="45.35735" lon="0.57048">
        <ele>139</ele>
        <time>2025-04-16T08:24:02Z</time>
      </trkpt>
      <trkpt lat="45.35746" lon="0.57142">
        <ele>138</ele>
        <time>2025-04-16T08:24:14Z</time>
      </trkpt>
      <trkpt lat="45.35736" lon="0.57223">
        <ele>140</ele>
        <time>2025-04-16T08:24:24Z</time>
      </trkpt>
      <trkpt lat="45.35745" lon="0.5728">
        <ele>140</ele>
        <time>2025-04-16T08:24:31Z</time>
      </trkpt>
      <trkpt lat="45.35751" lon="0.57335">
        <ele>142</ele>
        <time>2025-04-16T08:24:38Z</time>
      </trkpt>
      <trkpt lat="45.35743" lon="0.57407">
        <ele>144</ele>
        <time>2025-04-16T08:24:47Z</time>
      </trkpt>
      <trkpt lat="45.35751" lon="0.57473">
        <ele>143</ele>
        <time>2025-04-16T08:24:56Z</time>
      </trkpt>
      <trkpt lat="45.35769" lon="0.5753">
        <ele>144</ele>
        <time>2025-04-16T08:25:04Z</time>
      </trkpt>
      <trkpt lat="45.35801" lon="0.57546">
        <ele>146</ele>
        <time>2025-04-16T08:25:10Z</time>
      </trkpt>
      <trkpt lat="45.35834" lon="0.57553">
        <ele>147</ele>
        <time>2025-04-16T08:25:16Z</time>
      </trkpt>
      <trkpt lat="45.35858" lon="0.57579">
        <ele>147</ele>
        <time>2025-04-16T08:25:21Z</time>
      </trkpt>
      <trkpt lat="45.35917" lon="0.57505">
        <ele>155</ele>
        <time>2025-04-16T08:25:35Z</time>
      </trkpt>
      <trkpt lat="45.35858" lon="0.57579">
        <ele>147</ele>
        <time>2025-04-16T08:25:49Z</time>
      </trkpt>
      <trkpt lat="45.35862" lon="0.57583">
        <ele>147</ele>
        <time>2025-04-16T08:25:50Z</time>
      </trkpt>
      <trkpt lat="45.35882" lon="0.57634">
        <ele>150</ele>
        <time>2025-04-16T08:25:57Z</time>
      </trkpt>
      <trkpt lat="45.35968" lon="0.57667">
        <ele>152</ele>
        <time>2025-04-16T08:26:13Z</time>
      </trkpt>
      <trkpt lat="45.35999" lon="0.57697">
        <ele>153</ele>
        <time>2025-04-16T08:26:20Z</time>
      </trkpt>
      <trkpt lat="45.36019" lon="0.57732">
        <ele>155</ele>
        <time>2025-04-16T08:26:25Z</time>
      </trkpt>
      <trkpt lat="45.36043" lon="0.57793">
        <ele>157</ele>
        <time>2025-04-16T08:26:34Z</time>
      </trkpt>
      <trkpt lat="45.36103" lon="0.58004">
        <ele>159</ele>
        <time>2025-04-16T08:27:03Z</time>
      </trkpt>
      <trkpt lat="45.36128" lon="0.58107">
        <ele>161</ele>
        <time>2025-04-16T08:27:16Z</time>
      </trkpt>
      <trkpt lat="45.3613" lon="0.58156">
        <ele>163</ele>
        <time>2025-04-16T08:27:22Z</time>
      </trkpt>
      <trkpt lat="45.36081" lon="0.58561">
        <ele>169</ele>
        <time>2025-04-16T08:28:14Z</time>
      </trkpt>
      <trkpt lat="45.36011" lon="0.58873">
        <ele>177</ele>
        <time>2025-04-16T08:28:55Z</time>
      </trkpt>
      <trkpt lat="45.3601" lon="0.58894">
        <ele>178</ele>
        <time>2025-04-16T08:28:57Z</time>
      </trkpt>
      <trkpt lat="45.36002" lon="0.58899">
        <ele>178</ele>
        <time>2025-04-16T08:28:59Z</time>
      </trkpt>
      <trkpt lat="45.3597" lon="0.58907">
        <ele>177</ele>
        <time>2025-04-16T08:29:05Z</time>
      </trkpt>
      <trkpt lat="45.35962" lon="0.58913">
        <ele>177</ele>
        <time>2025-04-16T08:29:06Z</time>
      </trkpt>
      <trkpt lat="45.35957" lon="0.58919">
        <ele>177</ele>
        <time>2025-04-16T08:29:07Z</time>
      </trkpt>
      <trkpt lat="45.35955" lon="0.58927">
        <ele>177</ele>
        <time>2025-04-16T08:29:08Z</time>
      </trkpt>
      <trkpt lat="45.35944" lon="0.59016">
        <ele>177</ele>
        <time>2025-04-16T08:29:20Z</time>
      </trkpt>
      <trkpt lat="45.3594" lon="0.59038">
        <ele>177</ele>
        <time>2025-04-16T08:29:23Z</time>
      </trkpt>
      <trkpt lat="45.35934" lon="0.59057">
        <ele>177</ele>
        <time>2025-04-16T08:29:25Z</time>
      </trkpt>
      <trkpt lat="45.3592" lon="0.59086">
        <ele>177</ele>
        <time>2025-04-16T08:29:30Z</time>
      </trkpt>
      <trkpt lat="45.35843" lon="0.59219">
        <ele>175</ele>
        <time>2025-04-16T08:29:51Z</time>
      </trkpt>
      <trkpt lat="45.35774" lon="0.59289">
        <ele>177</ele>
        <time>2025-04-16T08:30:06Z</time>
      </trkpt>
      <trkpt lat="45.35711" lon="0.59391">
        <ele>178</ele>
        <time>2025-04-16T08:30:23Z</time>
      </trkpt>
      <trkpt lat="45.35681" lon="0.59438">
        <ele>178</ele>
        <time>2025-04-16T08:30:31Z</time>
      </trkpt>
      <trkpt lat="45.35659" lon="0.5946">
        <ele>178</ele>
        <time>2025-04-16T08:30:36Z</time>
      </trkpt>
      <trkpt lat="45.3563" lon="0.59484">
        <ele>178</ele>
        <time>2025-04-16T08:30:42Z</time>
      </trkpt>
      <trkpt lat="45.35606" lon="0.59514">
        <ele>179</ele>
        <time>2025-04-16T08:30:48Z</time>
      </trkpt>
      <trkpt lat="45.35522" lon="0.59652">
        <ele>177</ele>
        <time>2025-04-16T08:31:10Z</time>
      </trkpt>
      <trkpt lat="45.35497" lon="0.59678">
        <ele>177</ele>
        <time>2025-04-16T08:31:16Z</time>
      </trkpt>
      <trkpt lat="45.35438" lon="0.59721">
        <ele>176</ele>
        <time>2025-04-16T08:31:28Z</time>
      </trkpt>
      <trkpt lat="45.35242" lon="0.59864">
        <ele>177</ele>
        <time>2025-04-16T08:32:07Z</time>
      </trkpt>
      <trkpt lat="45.35192" lon="0.59891">
        <ele>176</ele>
        <time>2025-04-16T08:32:16Z</time>
      </trkpt>
      <trkpt lat="45.35144" lon="0.59909">
        <ele>176</ele>
        <time>2025-04-16T08:32:25Z</time>
      </trkpt>
      <trkpt lat="45.3511" lon="0.59907">
        <ele>177</ele>
        <time>2025-04-16T08:32:31Z</time>
      </trkpt>
      <trkpt lat="45.348" lon="0.59722">
        <ele>177</ele>
        <time>2025-04-16T08:33:31Z</time>
      </trkpt>
      <trkpt lat="45.34772" lon="0.59711">
        <ele>177</ele>
        <time>2025-04-16T08:33:36Z</time>
      </trkpt>
      <trkpt lat="45.34677" lon="0.59716">
        <ele>175</ele>
        <time>2025-04-16T08:33:53Z</time>
      </trkpt>
      <trkpt lat="45.34671" lon="0.59716">
        <ele>175</ele>
        <time>2025-04-16T08:33:54Z</time>
      </trkpt>
      <trkpt lat="45.34641" lon="0.59717">
        <ele>174</ele>
        <time>2025-04-16T08:34:00Z</time>
      </trkpt>
      <trkpt lat="45.34564" lon="0.59725">
        <ele>172</ele>
        <time>2025-04-16T08:34:13Z</time>
      </trkpt>
      <trkpt lat="45.34549" lon="0.59728">
        <ele>172</ele>
        <time>2025-04-16T08:34:16Z</time>
      </trkpt>
      <trkpt lat="45.34528" lon="0.59757">
        <ele>170</ele>
        <time>2025-04-16T08:34:21Z</time>
      </trkpt>
      <trkpt lat="45.34514" lon="0.59785">
        <ele>168</ele>
        <time>2025-04-16T08:34:26Z</time>
      </trkpt>
      <trkpt lat="45.34503" lon="0.59821">
        <ele>167</ele>
        <time>2025-04-16T08:34:30Z</time>
      </trkpt>
      <trkpt lat="45.34496" lon="0.59852">
        <ele>166</ele>
        <time>2025-04-16T08:34:34Z</time>
      </trkpt>
      <trkpt lat="45.34484" lon="0.59879">
        <ele>165</ele>
        <time>2025-04-16T08:34:38Z</time>
      </trkpt>
      <trkpt lat="45.34466" lon="0.59893">
        <ele>164</ele>
        <time>2025-04-16T08:34:42Z</time>
      </trkpt>
      <trkpt lat="45.34451" lon="0.59898">
        <ele>164</ele>
        <time>2025-04-16T08:34:45Z</time>
      </trkpt>
      <trkpt lat="45.34429" lon="0.59902">
        <ele>163</ele>
        <time>2025-04-16T08:34:49Z</time>
      </trkpt>
      <trkpt lat="45.34337" lon="0.59867">
        <ele>159</ele>
        <time>2025-04-16T08:35:06Z</time>
      </trkpt>
      <trkpt lat="45.34257" lon="0.59833">
        <ele>158</ele>
        <time>2025-04-16T08:35:21Z</time>
      </trkpt>
      <trkpt lat="45.34239" lon="0.59815">
        <ele>158</ele>
        <time>2025-04-16T08:35:25Z</time>
      </trkpt>
      <trkpt lat="45.34219" lon="0.59784">
        <ele>158</ele>
        <time>2025-04-16T08:35:30Z</time>
      </trkpt>
      <trkpt lat="45.34176" lon="0.59659">
        <ele>152</ele>
        <time>2025-04-16T08:35:47Z</time>
      </trkpt>
      <trkpt lat="45.34144" lon="0.59614">
        <ele>150</ele>
        <time>2025-04-16T08:35:55Z</time>
      </trkpt>
      <trkpt lat="45.34087" lon="0.59556">
        <ele>148</ele>
        <time>2025-04-16T08:36:08Z</time>
      </trkpt>
      <trkpt lat="45.34059" lon="0.59537">
        <ele>147</ele>
        <time>2025-04-16T08:36:13Z</time>
      </trkpt>
      <trkpt lat="45.34012" lon="0.5951">
        <ele>143</ele>
        <time>2025-04-16T08:36:22Z</time>
      </trkpt>
      <trkpt lat="45.33985" lon="0.59505">
        <ele>141</ele>
        <time>2025-04-16T08:36:27Z</time>
      </trkpt>
      <trkpt lat="45.33862" lon="0.59515">
        <ele>137</ele>
        <time>2025-04-16T08:36:49Z</time>
      </trkpt>
      <trkpt lat="45.33832" lon="0.59509">
        <ele>135</ele>
        <time>2025-04-16T08:36:54Z</time>
      </trkpt>
      <trkpt lat="45.33813" lon="0.59497">
        <ele>134</ele>
        <time>2025-04-16T08:36:58Z</time>
      </trkpt>
      <trkpt lat="45.33788" lon="0.59486">
        <ele>134</ele>
        <time>2025-04-16T08:37:03Z</time>
      </trkpt>
      <trkpt lat="45.33745" lon="0.59458">
        <ele>133</ele>
        <time>2025-04-16T08:37:11Z</time>
      </trkpt>
      <trkpt lat="45.33713" lon="0.59416">
        <ele>129</ele>
        <time>2025-04-16T08:37:19Z</time>
      </trkpt>
      <trkpt lat="45.337" lon="0.59403">
        <ele>130</ele>
        <time>2025-04-16T08:37:22Z</time>
      </trkpt>
      <trkpt lat="45.33684" lon="0.59392">
        <ele>129</ele>
        <time>2025-04-16T08:37:25Z</time>
      </trkpt>
      <trkpt lat="45.33664" lon="0.59386">
        <ele>128</ele>
        <time>2025-04-16T08:37:29Z</time>
      </trkpt>
      <trkpt lat="45.33535" lon="0.59379">
        <ele>120</ele>
        <time>2025-04-16T08:37:51Z</time>
      </trkpt>
      <trkpt lat="45.33497" lon="0.59375">
        <ele>116</ele>
        <time>2025-04-16T08:37:58Z</time>
      </trkpt>
      <trkpt lat="45.33475" lon="0.59364">
        <ele>112</ele>
        <time>2025-04-16T08:38:02Z</time>
      </trkpt>
      <trkpt lat="45.33443" lon="0.59339">
        <ele>106</ele>
        <time>2025-04-16T08:38:09Z</time>
      </trkpt>
      <trkpt lat="45.33438" lon="0.59307">
        <ele>109</ele>
        <time>2025-04-16T08:38:13Z</time>
      </trkpt>
      <trkpt lat="45.33427" lon="0.59275">
        <ele>112</ele>
        <time>2025-04-16T08:38:17Z</time>
      </trkpt>
      <trkpt lat="45.33385" lon="0.59196">
        <ele>121</ele>
        <time>2025-04-16T08:38:30Z</time>
      </trkpt>
      <trkpt lat="45.3332" lon="0.59144">
        <ele>121</ele>
        <time>2025-04-16T08:38:43Z</time>
      </trkpt>
      <trkpt lat="45.33268" lon="0.59124">
        <ele>119</ele>
        <time>2025-04-16T08:38:53Z</time>
      </trkpt>
      <trkpt lat="45.33238" lon="0.5912">
        <ele>117</ele>
        <time>2025-04-16T08:38:58Z</time>
      </trkpt>
      <trkpt lat="45.33107" lon="0.59127">
        <ele>106</ele>
        <time>2025-04-16T08:39:21Z</time>
      </trkpt>
      <trkpt lat="45.33081" lon="0.59121">
        <ele>106</ele>
        <time>2025-04-16T08:39:26Z</time>
      </trkpt>
      <trkpt lat="45.33056" lon="0.59102">
        <ele>107</ele>
        <time>2025-04-16T08:39:31Z</time>
      </trkpt>
      <trkpt lat="45.33023" lon="0.59064">
        <ele>109</ele>
        <time>2025-04-16T08:39:39Z</time>
      </trkpt>
      <trkpt lat="45.32991" lon="0.59041">
        <ele>110</ele>
        <time>2025-04-16T08:39:45Z</time>
      </trkpt>
      <trkpt lat="45.32895" lon="0.58992">
        <ele>104</ele>
        <time>2025-04-16T08:40:03Z</time>
      </trkpt>
      <trkpt lat="45.32863" lon="0.58966">
        <ele>101</ele>
        <time>2025-04-16T08:40:10Z</time>
      </trkpt>
      <trkpt lat="45.3284" lon="0.58958">
        <ele>98</ele>
        <time>2025-04-16T08:40:14Z</time>
      </trkpt>
      <trkpt lat="45.32809" lon="0.58962">
        <ele>98</ele>
        <time>2025-04-16T08:40:20Z</time>
      </trkpt>
      <trkpt lat="45.3278" lon="0.58969">
        <ele>98</ele>
        <time>2025-04-16T08:40:25Z</time>
      </trkpt>
      <trkpt lat="45.32751" lon="0.58968">
        <ele>98</ele>
        <time>2025-04-16T08:40:30Z</time>
      </trkpt>
      <trkpt lat="45.32712" lon="0.58961">
        <ele>98</ele>
        <time>2025-04-16T08:40:37Z</time>
      </trkpt>
      <trkpt lat="45.32674" lon="0.58964">
        <ele>97</ele>
        <time>2025-04-16T08:40:44Z</time>
      </trkpt>
      <trkpt lat="45.32636" lon="0.58973">
        <ele>96</ele>
        <time>2025-04-16T08:40:51Z</time>
      </trkpt>
      <trkpt lat="45.32566" lon="0.58977">
        <ele>93</ele>
        <time>2025-04-16T08:41:03Z</time>
      </trkpt>
      <trkpt lat="45.3253" lon="0.5897">
        <ele>93</ele>
        <time>2025-04-16T08:41:09Z</time>
      </trkpt>
      <trkpt lat="45.32504" lon="0.58951">
        <ele>93</ele>
        <time>2025-04-16T08:41:15Z</time>
      </trkpt>
      <trkpt lat="45.32479" lon="0.58913">
        <ele>92</ele>
        <time>2025-04-16T08:41:21Z</time>
      </trkpt>
      <trkpt lat="45.3246" lon="0.58871">
        <ele>92</ele>
        <time>2025-04-16T08:41:27Z</time>
      </trkpt>
      <trkpt lat="45.32441" lon="0.58806">
        <ele>92</ele>
        <time>2025-04-16T08:41:36Z</time>
      </trkpt>
      <trkpt lat="45.32432" lon="0.58753">
        <ele>94</ele>
        <time>2025-04-16T08:41:43Z</time>
      </trkpt>
      <trkpt lat="45.32424" lon="0.58626">
        <ele>95</ele>
        <time>2025-04-16T08:41:59Z</time>
      </trkpt>
      <trkpt lat="45.32434" lon="0.58503">
        <ele>94</ele>
        <time>2025-04-16T08:42:14Z</time>
      </trkpt>
      <trkpt lat="45.32435" lon="0.5845">
        <ele>94</ele>
        <time>2025-04-16T08:42:21Z</time>
      </trkpt>
      <trkpt lat="45.32416" lon="0.58292">
        <ele>94</ele>
        <time>2025-04-16T08:42:41Z</time>
      </trkpt>
      <trkpt lat="45.32421" lon="0.58219">
        <ele>96</ele>
        <time>2025-04-16T08:42:50Z</time>
      </trkpt>
      <trkpt lat="45.32431" lon="0.5818">
        <ele>98</ele>
        <time>2025-04-16T08:42:56Z</time>
      </trkpt>
      <trkpt lat="45.32443" lon="0.58158">
        <ele>99</ele>
        <time>2025-04-16T08:42:59Z</time>
      </trkpt>
      <trkpt lat="45.32448" lon="0.58145">
        <ele>99</ele>
        <time>2025-04-16T08:43:01Z</time>
      </trkpt>
      <trkpt lat="45.32452" lon="0.58119">
        <ele>100</ele>
        <time>2025-04-16T08:43:04Z</time>
      </trkpt>
      <trkpt lat="45.32459" lon="0.57884">
        <ele>96</ele>
        <time>2025-04-16T08:43:34Z</time>
      </trkpt>
      <trkpt lat="45.32458" lon="0.57807">
        <ele>95</ele>
        <time>2025-04-16T08:43:43Z</time>
      </trkpt>
      <trkpt lat="45.3246" lon="0.5777">
        <ele>94</ele>
        <time>2025-04-16T08:43:48Z</time>
      </trkpt>
      <trkpt lat="45.32464" lon="0.57732">
        <ele>94</ele>
        <time>2025-04-16T08:43:53Z</time>
      </trkpt>
      <trkpt lat="45.32494" lon="0.57579">
        <ele>97</ele>
        <time>2025-04-16T08:44:13Z</time>
      </trkpt>
      <trkpt lat="45.32498" lon="0.57548">
        <ele>97</ele>
        <time>2025-04-16T08:44:17Z</time>
      </trkpt>
      <trkpt lat="45.325" lon="0.57499">
        <ele>98</ele>
        <time>2025-04-16T08:44:23Z</time>
      </trkpt>
      <trkpt lat="45.32494" lon="0.57324">
        <ele>99</ele>
        <time>2025-04-16T08:44:45Z</time>
      </trkpt>
      <trkpt lat="45.32487" lon="0.57247">
        <ele>99</ele>
        <time>2025-04-16T08:44:54Z</time>
      </trkpt>
      <trkpt lat="45.3247" lon="0.57056">
        <ele>100</ele>
        <time>2025-04-16T08:45:18Z</time>
      </trkpt>
      <trkpt lat="45.32462" lon="0.5701">
        <ele>100</ele>
        <time>2025-04-16T08:45:24Z</time>
      </trkpt>
      <trkpt lat="45.32444" lon="0.56948">
        <ele>102</ele>
        <time>2025-04-16T08:45:33Z</time>
      </trkpt>
      <trkpt lat="45.32421" lon="0.56883">
        <ele>103</ele>
        <time>2025-04-16T08:45:42Z</time>
      </trkpt>
      <trkpt lat="45.32352" lon="0.56705">
        <ele>106</ele>
        <time>2025-04-16T08:46:07Z</time>
      </trkpt>
      <trkpt lat="45.3231" lon="0.56646">
        <ele>108</ele>
        <time>2025-04-16T08:46:18Z</time>
      </trkpt>
      <trkpt lat="45.3216" lon="0.56482">
        <ele>108</ele>
        <time>2025-04-16T08:46:51Z</time>
      </trkpt>
      <trkpt lat="45.32064" lon="0.56336">
        <ele>105</ele>
        <time>2025-04-16T08:47:16Z</time>
      </trkpt>
      <trkpt lat="45.32048" lon="0.56287">
        <ele>102</ele>
        <time>2025-04-16T08:47:23Z</time>
      </trkpt>
      <trkpt lat="45.32044" lon="0.56259">
        <ele>101</ele>
        <time>2025-04-16T08:47:27Z</time>
      </trkpt>
      <trkpt lat="45.32052" lon="0.56239">
        <ele>101</ele>
        <time>2025-04-16T08:47:30Z</time>
      </trkpt>
      <trkpt lat="45.32095" lon="0.56174">
        <ele>105</ele>
        <time>2025-04-16T08:47:41Z</time>
      </trkpt>
      <trkpt lat="45.32111" lon="0.56141">
        <ele>105</ele>
        <time>2025-04-16T08:47:46Z</time>
      </trkpt>
      <trkpt lat="45.32113" lon="0.56105">
        <ele>102</ele>
        <time>2025-04-16T08:47:50Z</time>
      </trkpt>
      <trkpt lat="45.32103" lon="0.56074">
        <ele>98</ele>
        <time>2025-04-16T08:47:55Z</time>
      </trkpt>
      <trkpt lat="45.32086" lon="0.56065">
        <ele>96</ele>
        <time>2025-04-16T08:47:58Z</time>
      </trkpt>
      <trkpt lat="45.32049" lon="0.5607">
        <ele>98</ele>
        <time>2025-04-16T08:48:04Z</time>
      </trkpt>
      <trkpt lat="45.3203" lon="0.56069">
        <ele>99</ele>
        <time>2025-04-16T08:48:08Z</time>
      </trkpt>
      <trkpt lat="45.32008" lon="0.56065">
        <ele>100</ele>
        <time>2025-04-16T08:48:12Z</time>
      </trkpt>
      <trkpt lat="45.31976" lon="0.5605">
        <ele>104</ele>
        <time>2025-04-16T08:48:18Z</time>
      </trkpt>
      <trkpt lat="45.31934" lon="0.56003">
        <ele>110</ele>
        <time>2025-04-16T08:48:27Z</time>
      </trkpt>
      <trkpt lat="45.3189" lon="0.55915">
        <ele>117</ele>
        <time>2025-04-16T08:48:41Z</time>
      </trkpt>
      <trkpt lat="45.31883" lon="0.55892">
        <ele>118</ele>
        <time>2025-04-16T08:48:44Z</time>
      </trkpt>
      <trkpt lat="45.31878" lon="0.55895">
        <ele>118</ele>
        <time>2025-04-16T08:48:45Z</time>
      </trkpt>
      <trkpt lat="45.31864" lon="0.55895">
        <ele>118</ele>
        <time>2025-04-16T08:48:47Z</time>
      </trkpt>
      <trkpt lat="45.31849" lon="0.55901">
        <ele>118</ele>
        <time>2025-04-16T08:48:50Z</time>
      </trkpt>
      <trkpt lat="45.31841" lon="0.55912">
        <ele>118</ele>
        <time>2025-04-16T08:48:52Z</time>
      </trkpt>
      <trkpt lat="45.31822" lon="0.55946">
        <ele>118</ele>
        <time>2025-04-16T08:48:58Z</time>
      </trkpt>
      <trkpt lat="45.31816" lon="0.55955">
        <ele>118</ele>
        <time>2025-04-16T08:48:59Z</time>
      </trkpt>
      <trkpt lat="45.31805" lon="0.55964">
        <ele>119</ele>
        <time>2025-04-16T08:49:01Z</time>
      </trkpt>
      <trkpt lat="45.3179" lon="0.5597">
        <ele>120</ele>
        <time>2025-04-16T08:49:04Z</time>
      </trkpt>
      <trkpt lat="45.31757" lon="0.55967">
        <ele>123</ele>
        <time>2025-04-16T08:49:10Z</time>
      </trkpt>
      <trkpt lat="45.31718" lon="0.55946">
        <ele>125</ele>
        <time>2025-04-16T08:49:17Z</time>
      </trkpt>
      <trkpt lat="45.31633" lon="0.55857">
        <ele>132</ele>
        <time>2025-04-16T08:49:36Z</time>
      </trkpt>
      <trkpt lat="45.3157" lon="0.55848">
        <ele>131</ele>
        <time>2025-04-16T08:49:47Z</time>
      </trkpt>
      <trkpt lat="45.31512" lon="0.55846">
        <ele>131</ele>
        <time>2025-04-16T08:49:58Z</time>
      </trkpt>
      <trkpt lat="45.31457" lon="0.55854">
        <ele>129</ele>
        <time>2025-04-16T08:50:08Z</time>
      </trkpt>
      <trkpt lat="45.31365" lon="0.55889">
        <ele>127</ele>
        <time>2025-04-16T08:50:25Z</time>
      </trkpt>
      <trkpt lat="45.31325" lon="0.55903">
        <ele>126</ele>
        <time>2025-04-16T08:50:32Z</time>
      </trkpt>
      <trkpt lat="45.31284" lon="0.55902">
        <ele>124</ele>
        <time>2025-04-16T08:50:39Z</time>
      </trkpt>
      <trkpt lat="45.31217" lon="0.55859">
        <ele>121</ele>
        <time>2025-04-16T08:50:52Z</time>
      </trkpt>
      <trkpt lat="45.3119" lon="0.5583">
        <ele>121</ele>
        <time>2025-04-16T08:50:58Z</time>
      </trkpt>
      <trkpt lat="45.31137" lon="0.55688">
        <ele>115</ele>
        <time>2025-04-16T08:51:18Z</time>
      </trkpt>
      <trkpt lat="45.31108" lon="0.55642">
        <ele>115</ele>
        <time>2025-04-16T08:51:26Z</time>
      </trkpt>
      <trkpt lat="45.31078" lon="0.55607">
        <ele>116</ele>
        <time>2025-04-16T08:51:33Z</time>
      </trkpt>
      <trkpt lat="45.31051" lon="0.55561">
        <ele>113</ele>
        <time>2025-04-16T08:51:41Z</time>
      </trkpt>
      <trkpt lat="45.31031" lon="0.55508">
        <ele>108</ele>
        <time>2025-04-16T08:51:48Z</time>
      </trkpt>
      <trkpt lat="45.31002" lon="0.55442">
        <ele>105</ele>
        <time>2025-04-16T08:51:58Z</time>
      </trkpt>
      <trkpt lat="45.30961" lon="0.55389">
        <ele>104</ele>
        <time>2025-04-16T08:52:08Z</time>
      </trkpt>
      <trkpt lat="45.30911" lon="0.55328">
        <ele>96</ele>
        <time>2025-04-16T08:52:19Z</time>
      </trkpt>
      <trkpt lat="45.30837" lon="0.55264">
        <ele>91</ele>
        <time>2025-04-16T08:52:35Z</time>
      </trkpt>
      <trkpt lat="45.30814" lon="0.55253">
        <ele>90</ele>
        <time>2025-04-16T08:52:39Z</time>
      </trkpt>
      <trkpt lat="45.30786" lon="0.55245">
        <ele>91</ele>
        <time>2025-04-16T08:52:44Z</time>
      </trkpt>
      <trkpt lat="45.30761" lon="0.55233">
        <ele>91</ele>
        <time>2025-04-16T08:52:49Z</time>
      </trkpt>
      <trkpt lat="45.30745" lon="0.55219">
        <ele>91</ele>
        <time>2025-04-16T08:52:52Z</time>
      </trkpt>
      <trkpt lat="45.30741" lon="0.55206">
        <ele>91</ele>
        <time>2025-04-16T08:52:54Z</time>
      </trkpt>
      <trkpt lat="45.3074" lon="0.55193">
        <ele>91</ele>
        <time>2025-04-16T08:52:56Z</time>
      </trkpt>
      <trkpt lat="45.30767" lon="0.55119">
        <ele>91</ele>
        <time>2025-04-16T08:53:06Z</time>
      </trkpt>
      <trkpt lat="45.30769" lon="0.55107">
        <ele>91</ele>
        <time>2025-04-16T08:53:08Z</time>
      </trkpt>
      <trkpt lat="45.30764" lon="0.55084">
        <ele>91</ele>
        <time>2025-04-16T08:53:11Z</time>
      </trkpt>
      <trkpt lat="45.30745" lon="0.55028">
        <ele>91</ele>
        <time>2025-04-16T08:53:18Z</time>
      </trkpt>
      <trkpt lat="45.30738" lon="0.54993">
        <ele>91</ele>
        <time>2025-04-16T08:53:23Z</time>
      </trkpt>
      <trkpt lat="45.30732" lon="0.54919">
        <ele>92</ele>
        <time>2025-04-16T08:53:32Z</time>
      </trkpt>
      <trkpt lat="45.30731" lon="0.54914">
        <ele>92</ele>
        <time>2025-04-16T08:53:33Z</time>
      </trkpt>
      <trkpt lat="45.3073" lon="0.54859">
        <ele>91</ele>
        <time>2025-04-16T08:53:40Z</time>
      </trkpt>
      <trkpt lat="45.30751" lon="0.54646">
        <ele>95</ele>
        <time>2025-04-16T08:54:07Z</time>
      </trkpt>
      <trkpt lat="45.30751" lon="0.54628">
        <ele>97</ele>
        <time>2025-04-16T08:54:09Z</time>
      </trkpt>
      <trkpt lat="45.30746" lon="0.54604">
        <ele>99</ele>
        <time>2025-04-16T08:54:12Z</time>
      </trkpt>
      <trkpt lat="45.30741" lon="0.54593">
        <ele>100</ele>
        <time>2025-04-16T08:54:14Z</time>
      </trkpt>
      <trkpt lat="45.30732" lon="0.5458">
        <ele>100</ele>
        <time>2025-04-16T08:54:16Z</time>
      </trkpt>
      <trkpt lat="45.30718" lon="0.54566">
        <ele>100</ele>
        <time>2025-04-16T08:54:19Z</time>
      </trkpt>
      <trkpt lat="45.30693" lon="0.54545">
        <ele>100</ele>
        <time>2025-04-16T08:54:24Z</time>
      </trkpt>
      <trkpt lat="45.30582" lon="0.54464">
        <ele>103</ele>
        <time>2025-04-16T08:54:46Z</time>
      </trkpt>
      <trkpt lat="45.30574" lon="0.54456">
        <ele>103</ele>
        <time>2025-04-16T08:54:48Z</time>
      </trkpt>
      <trkpt lat="45.30571" lon="0.54451">
        <ele>103</ele>
        <time>2025-04-16T08:54:49Z</time>
      </trkpt>
      <trkpt lat="45.30519" lon="0.54454">
        <ele>101</ele>
        <time>2025-04-16T08:54:58Z</time>
      </trkpt>
      <trkpt lat="45.30379" lon="0.54461">
        <ele>98</ele>
        <time>2025-04-16T08:55:23Z</time>
      </trkpt>
      <trkpt lat="45.30346" lon="0.54452">
        <ele>98</ele>
        <time>2025-04-16T08:55:29Z</time>
      </trkpt>
      <trkpt lat="45.30261" lon="0.54398">
        <ele>95</ele>
        <time>2025-04-16T08:55:46Z</time>
      </trkpt>
      <trkpt lat="45.30243" lon="0.54376">
        <ele>95</ele>
        <time>2025-04-16T08:55:50Z</time>
      </trkpt>
      <trkpt lat="45.30238" lon="0.54344">
        <ele>95</ele>
        <time>2025-04-16T08:55:54Z</time>
      </trkpt>
      <trkpt lat="45.30217" lon="0.54038">
        <ele>92</ele>
        <time>2025-04-16T08:56:33Z</time>
      </trkpt>
      <trkpt lat="45.3021" lon="0.53893">
        <ele>89</ele>
        <time>2025-04-16T08:56:51Z</time>
      </trkpt>
      <trkpt lat="45.30211" lon="0.53885">
        <ele>89</ele>
        <time>2025-04-16T08:56:52Z</time>
      </trkpt>
      <trkpt lat="45.30256" lon="0.53898">
        <ele>90</ele>
        <time>2025-04-16T08:57:00Z</time>
      </trkpt>
      <trkpt lat="45.30258" lon="0.53893">
        <ele>90</ele>
        <time>2025-04-16T08:57:01Z</time>
      </trkpt>
      <trkpt lat="45.30279" lon="0.53873">
        <ele>89</ele>
        <time>2025-04-16T08:57:05Z</time>
      </trkpt>
      <trkpt lat="45.30281" lon="0.5386">
        <ele>89</ele>
        <time>2025-04-16T08:57:07Z</time>
      </trkpt>
      <trkpt lat="45.30278" lon="0.53851">
        <ele>88</ele>
        <time>2025-04-16T08:57:08Z</time>
      </trkpt>
      <trkpt lat="45.30251" lon="0.53801">
        <ele>87</ele>
        <time>2025-04-16T08:57:16Z</time>
      </trkpt>
      <trkpt lat="45.30241" lon="0.5378">
        <ele>87</ele>
        <time>2025-04-16T08:57:19Z</time>
      </trkpt>
      <trkpt lat="45.30236" lon="0.53761">
        <ele>87</ele>
        <time>2025-04-16T08:57:22Z</time>
      </trkpt>
      <trkpt lat="45.30235" lon="0.5375">
        <ele>87</ele>
        <time>2025-04-16T08:57:23Z</time>
      </trkpt>
      <trkpt lat="45.30236" lon="0.53742">
        <ele>88</ele>
        <time>2025-04-16T08:57:24Z</time>
      </trkpt>
      <trkpt lat="45.30242" lon="0.53706">
        <ele>90</ele>
        <time>2025-04-16T08:57:29Z</time>
      </trkpt>
      <trkpt lat="45.30243" lon="0.53702">
        <ele>91</ele>
        <time>2025-04-16T08:57:29Z</time>
      </trkpt>
      <trkpt lat="45.30244" lon="0.53698">
        <ele>91</ele>
        <time>2025-04-16T08:57:30Z</time>
      </trkpt>
      <trkpt lat="45.30243" lon="0.53688">
        <ele>92</ele>
        <time>2025-04-16T08:57:31Z</time>
      </trkpt>
      <trkpt lat="45.30216" lon="0.53613">
        <ele>96</ele>
        <time>2025-04-16T08:57:42Z</time>
      </trkpt>
      <trkpt lat="45.30195" lon="0.5353">
        <ele>96</ele>
        <time>2025-04-16T08:57:53Z</time>
      </trkpt>
      <trkpt lat="45.30171" lon="0.53465">
        <ele>97</ele>
        <time>2025-04-16T08:58:02Z</time>
      </trkpt>
      <trkpt lat="45.30133" lon="0.53385">
        <ele>98</ele>
        <time>2025-04-16T08:58:14Z</time>
      </trkpt>
      <trkpt lat="45.30096" lon="0.53293">
        <ele>96</ele>
        <time>2025-04-16T08:58:27Z</time>
      </trkpt>
      <trkpt lat="45.30083" lon="0.53253">
        <ele>95</ele>
        <time>2025-04-16T08:58:33Z</time>
      </trkpt>
      <trkpt lat="45.30077" lon="0.53215">
        <ele>97</ele>
        <time>2025-04-16T08:58:38Z</time>
      </trkpt>
      <trkpt lat="45.30066" lon="0.53183">
        <ele>98</ele>
        <time>2025-04-16T08:58:42Z</time>
      </trkpt>
      <trkpt lat="45.30037" lon="0.53116">
        <ele>99</ele>
        <time>2025-04-16T08:58:52Z</time>
      </trkpt>
      <trkpt lat="45.29983" lon="0.53011">
        <ele>95</ele>
        <time>2025-04-16T08:59:08Z</time>
      </trkpt>
      <trkpt lat="45.29958" lon="0.52926">
        <ele>97</ele>
        <time>2025-04-16T08:59:20Z</time>
      </trkpt>
      <trkpt lat="45.2995" lon="0.52911">
        <ele>97</ele>
        <time>2025-04-16T08:59:22Z</time>
      </trkpt>
      <trkpt lat="45.29936" lon="0.529">
        <ele>96</ele>
        <time>2025-04-16T08:59:25Z</time>
      </trkpt>
      <trkpt lat="45.29896" lon="0.52875">
        <ele>95</ele>
        <time>2025-04-16T08:59:33Z</time>
      </trkpt>
      <trkpt lat="45.29853" lon="0.52837">
        <ele>94</ele>
        <time>2025-04-16T08:59:42Z</time>
      </trkpt>
      <trkpt lat="45.29828" lon="0.52803">
        <ele>94</ele>
        <time>2025-04-16T08:59:48Z</time>
      </trkpt>
      <trkpt lat="45.29803" lon="0.52774">
        <ele>96</ele>
        <time>2025-04-16T08:59:54Z</time>
      </trkpt>
      <trkpt lat="45.29769" lon="0.52747">
        <ele>96</ele>
        <time>2025-04-16T09:00:00Z</time>
      </trkpt>
      <trkpt lat="45.29717" lon="0.52718">
        <ele>96</ele>
        <time>2025-04-16T09:00:10Z</time>
      </trkpt>
      <trkpt lat="45.29672" lon="0.5265">
        <ele>99</ele>
        <time>2025-04-16T09:00:22Z</time>
      </trkpt>
      <trkpt lat="45.29594" lon="0.5256">
        <ele>101</ele>
        <time>2025-04-16T09:00:40Z</time>
      </trkpt>
      <trkpt lat="45.29539" lon="0.52492">
        <ele>102</ele>
        <time>2025-04-16T09:00:53Z</time>
      </trkpt>
      <trkpt lat="45.29531" lon="0.52479">
        <ele>101</ele>
        <time>2025-04-16T09:00:55Z</time>
      </trkpt>
      <trkpt lat="45.29507" lon="0.52426">
        <ele>100</ele>
        <time>2025-04-16T09:01:03Z</time>
      </trkpt>
      <trkpt lat="45.29484" lon="0.52388">
        <ele>99</ele>
        <time>2025-04-16T09:01:09Z</time>
      </trkpt>
      <trkpt lat="45.29464" lon="0.52362">
        <ele>99</ele>
        <time>2025-04-16T09:01:14Z</time>
      </trkpt>
      <trkpt lat="45.29453" lon="0.52353">
        <ele>99</ele>
        <time>2025-04-16T09:01:16Z</time>
      </trkpt>
      <trkpt lat="45.2944" lon="0.52347">
        <ele>99</ele>
        <time>2025-04-16T09:01:19Z</time>
      </trkpt>
      <trkpt lat="45.29434" lon="0.52346">
        <ele>99</ele>
        <time>2025-04-16T09:01:20Z</time>
      </trkpt>
      <trkpt lat="45.29424" lon="0.5235">
        <ele>99</ele>
        <time>2025-04-16T09:01:22Z</time>
      </trkpt>
      <trkpt lat="45.29366" lon="0.52413">
        <ele>99</ele>
        <time>2025-04-16T09:01:35Z</time>
      </trkpt>
      <trkpt lat="45.29349" lon="0.52429">
        <ele>99</ele>
        <time>2025-04-16T09:01:38Z</time>
      </trkpt>
      <trkpt lat="45.29323" lon="0.52442">
        <ele>99</ele>
        <time>2025-04-16T09:01:43Z</time>
      </trkpt>
      <trkpt lat="45.29278" lon="0.52457">
        <ele>100</ele>
        <time>2025-04-16T09:01:51Z</time>
      </trkpt>
      <trkpt lat="45.29248" lon="0.52472">
        <ele>99</ele>
        <time>2025-04-16T09:01:57Z</time>
      </trkpt>
      <trkpt lat="45.29207" lon="0.52484">
        <ele>99</ele>
        <time>2025-04-16T09:02:05Z</time>
      </trkpt>
      <trkpt lat="45.29095" lon="0.5248">
        <ele>101</ele>
        <time>2025-04-16T09:02:24Z</time>
      </trkpt>
      <trkpt lat="45.29086" lon="0.52492">
        <ele>100</ele>
        <time>2025-04-16T09:02:27Z</time>
      </trkpt>
      <trkpt lat="45.29075" lon="0.52498">
        <ele>100</ele>
        <time>2025-04-16T09:02:29Z</time>
      </trkpt>
      <trkpt lat="45.29047" lon="0.52502">
        <ele>100</ele>
        <time>2025-04-16T09:02:34Z</time>
      </trkpt>
      <trkpt lat="45.29007" lon="0.52517">
        <ele>100</ele>
        <time>2025-04-16T09:02:41Z</time>
      </trkpt>
      <trkpt lat="45.2891" lon="0.52576">
        <ele>102</ele>
        <time>2025-04-16T09:03:00Z</time>
      </trkpt>
      <trkpt lat="45.28886" lon="0.52598">
        <ele>101</ele>
        <time>2025-04-16T09:03:05Z</time>
      </trkpt>
      <trkpt lat="45.28807" lon="0.52689">
        <ele>97</ele>
        <time>2025-04-16T09:03:23Z</time>
      </trkpt>
      <trkpt lat="45.28776" lon="0.5272">
        <ele>96</ele>
        <time>2025-04-16T09:03:30Z</time>
      </trkpt>
      <trkpt lat="45.28747" lon="0.52732">
        <ele>98</ele>
        <time>2025-04-16T09:03:35Z</time>
      </trkpt>
      <trkpt lat="45.28721" lon="0.52738">
        <ele>101</ele>
        <time>2025-04-16T09:03:40Z</time>
      </trkpt>
      <trkpt lat="45.28625" lon="0.52801">
        <ele>106</ele>
        <time>2025-04-16T09:03:59Z</time>
      </trkpt>
      <trkpt lat="45.28597" lon="0.52837">
        <ele>104</ele>
        <time>2025-04-16T09:04:05Z</time>
      </trkpt>
      <trkpt lat="45.28546" lon="0.52918">
        <ele>102</ele>
        <time>2025-04-16T09:04:19Z</time>
      </trkpt>
      <trkpt lat="45.28512" lon="0.52958">
        <ele>106</ele>
        <time>2025-04-16T09:04:27Z</time>
      </trkpt>
      <trkpt lat="45.28476" lon="0.52998">
        <ele>110</ele>
        <time>2025-04-16T09:04:35Z</time>
      </trkpt>
      <trkpt lat="45.2843" lon="0.53069">
        <ele>110</ele>
        <time>2025-04-16T09:04:47Z</time>
      </trkpt>
      <trkpt lat="45.28414" lon="0.53095">
        <ele>111</ele>
        <time>2025-04-16T09:04:51Z</time>
      </trkpt>
      <trkpt lat="45.28407" lon="0.53103">
        <ele>112</ele>
        <time>2025-04-16T09:04:53Z</time>
      </trkpt>
      <trkpt lat="45.28403" lon="0.53104">
        <ele>114</ele>
        <time>2025-04-16T09:04:54Z</time>
      </trkpt>
      <trkpt lat="45.28341" lon="0.53277">
        <ele>105</ele>
        <time>2025-04-16T09:05:18Z</time>
      </trkpt>
      <trkpt lat="45.28294" lon="0.53417">
        <ele>99</ele>
        <time>2025-04-16T09:05:37Z</time>
      </trkpt>
      <trkpt lat="45.28217" lon="0.53574">
        <ele>93</ele>
        <time>2025-04-16T09:06:01Z</time>
      </trkpt>
      <trkpt lat="45.28183" lon="0.53627">
        <ele>91</ele>
        <time>2025-04-16T09:06:10Z</time>
      </trkpt>
      <trkpt lat="45.28149" lon="0.5367">
        <ele>91</ele>
        <time>2025-04-16T09:06:19Z</time>
      </trkpt>
      <trkpt lat="45.28064" lon="0.53756">
        <ele>92</ele>
        <time>2025-04-16T09:06:37Z</time>
      </trkpt>
      <trkpt lat="45.28034" lon="0.53792">
        <ele>89</ele>
        <time>2025-04-16T09:06:44Z</time>
      </trkpt>
      <trkpt lat="45.28019" lon="0.53816">
        <ele>87</ele>
        <time>2025-04-16T09:06:48Z</time>
      </trkpt>
      <trkpt lat="45.28002" lon="0.53781">
        <ele>91</ele>
        <time>2025-04-16T09:06:53Z</time>
      </trkpt>
      <trkpt lat="45.27984" lon="0.53761">
        <ele>93</ele>
        <time>2025-04-16T09:06:57Z</time>
      </trkpt>
      <trkpt lat="45.27875" lon="0.5367">
        <ele>101</ele>
        <time>2025-04-16T09:07:20Z</time>
      </trkpt>
      <trkpt lat="45.2785" lon="0.53645">
        <ele>102</ele>
        <time>2025-04-16T09:07:25Z</time>
      </trkpt>
      <trkpt lat="45.27824" lon="0.53623">
        <ele>103</ele>
        <time>2025-04-16T09:07:31Z</time>
      </trkpt>
      <trkpt lat="45.27806" lon="0.53594">
        <ele>103</ele>
        <time>2025-04-16T09:07:36Z</time>
      </trkpt>
      <trkpt lat="45.27776" lon="0.53503">
        <ele>104</ele>
        <time>2025-04-16T09:07:48Z</time>
      </trkpt>
      <trkpt lat="45.27751" lon="0.53441">
        <ele>107</ele>
        <time>2025-04-16T09:07:57Z</time>
      </trkpt>
      <trkpt lat="45.27682" lon="0.53296">
        <ele>112</ele>
        <time>2025-04-16T09:08:19Z</time>
      </trkpt>
      <trkpt lat="45.27637" lon="0.53236">
        <ele>110</ele>
        <time>2025-04-16T09:08:30Z</time>
      </trkpt>
      <trkpt lat="45.27621" lon="0.53182">
        <ele>109</ele>
        <time>2025-04-16T09:08:37Z</time>
      </trkpt>
      <trkpt lat="45.27596" lon="0.5307">
        <ele>103</ele>
        <time>2025-04-16T09:08:52Z</time>
      </trkpt>
      <trkpt lat="45.27588" lon="0.5298">
        <ele>104</ele>
        <time>2025-04-16T09:09:03Z</time>
      </trkpt>
      <trkpt lat="45.2758" lon="0.52957">
        <ele>104</ele>
        <time>2025-04-16T09:09:07Z</time>
      </trkpt>
      <trkpt lat="45.27541" lon="0.52883">
        <ele>99</ele>
        <time>2025-04-16T09:09:18Z</time>
      </trkpt>
      <trkpt lat="45.27512" lon="0.52807">
        <ele>93</ele>
        <time>2025-04-16T09:09:29Z</time>
      </trkpt>
      <trkpt lat="45.27464" lon="0.5269">
        <ele>89</ele>
        <time>2025-04-16T09:09:46Z</time>
      </trkpt>
      <trkpt lat="45.27462" lon="0.52673">
        <ele>89</ele>
        <time>2025-04-16T09:09:48Z</time>
      </trkpt>
      <trkpt lat="45.27463" lon="0.52656">
        <ele>88</ele>
        <time>2025-04-16T09:09:50Z</time>
      </trkpt>
      <trkpt lat="45.27492" lon="0.5248">
        <ele>87</ele>
        <time>2025-04-16T09:10:13Z</time>
      </trkpt>
      <trkpt lat="45.27506" lon="0.52245">
        <ele>84</ele>
        <time>2025-04-16T09:10:42Z</time>
      </trkpt>
      <trkpt lat="45.27514" lon="0.52044">
        <ele>83</ele>
        <time>2025-04-16T09:11:08Z</time>
      </trkpt>
      <trkpt lat="45.27523" lon="0.51953">
        <ele>83</ele>
        <time>2025-04-16T09:11:19Z</time>
      </trkpt>
      <trkpt lat="45.27539" lon="0.51862">
        <ele>83</ele>
        <time>2025-04-16T09:11:31Z</time>
      </trkpt>
      <trkpt lat="45.27576" lon="0.51746">
        <ele>83</ele>
        <time>2025-04-16T09:11:47Z</time>
      </trkpt>
      <trkpt lat="45.27582" lon="0.5169">
        <ele>83</ele>
        <time>2025-04-16T09:11:54Z</time>
      </trkpt>
      <trkpt lat="45.27576" lon="0.51642">
        <ele>82</ele>
        <time>2025-04-16T09:12:00Z</time>
      </trkpt>
      <trkpt lat="45.27564" lon="0.51587">
        <ele>81</ele>
        <time>2025-04-16T09:12:07Z</time>
      </trkpt>
      <trkpt lat="45.27533" lon="0.51545">
        <ele>82</ele>
        <time>2025-04-16T09:12:15Z</time>
      </trkpt>
      <trkpt lat="45.27488" lon="0.51476">
        <ele>81</ele>
        <time>2025-04-16T09:12:27Z</time>
      </trkpt>
      <trkpt lat="45.27475" lon="0.51425">
        <ele>81</ele>
        <time>2025-04-16T09:12:33Z</time>
      </trkpt>
      <trkpt lat="45.27468" lon="0.51372">
        <ele>81</ele>
        <time>2025-04-16T09:12:40Z</time>
      </trkpt>
      <trkpt lat="45.27456" lon="0.51153">
        <ele>83</ele>
        <time>2025-04-16T09:13:08Z</time>
      </trkpt>
      <trkpt lat="45.27444" lon="0.51011">
        <ele>87</ele>
        <time>2025-04-16T09:13:26Z</time>
      </trkpt>
      <trkpt lat="45.27437" lon="0.50981">
        <ele>86</ele>
        <time>2025-04-16T09:13:30Z</time>
      </trkpt>
      <trkpt lat="45.27426" lon="0.50954">
        <ele>85</ele>
        <time>2025-04-16T09:13:34Z</time>
      </trkpt>
      <trkpt lat="45.27381" lon="0.50879">
        <ele>82</ele>
        <time>2025-04-16T09:13:46Z</time>
      </trkpt>
      <trkpt lat="45.2734" lon="0.50841">
        <ele>83</ele>
        <time>2025-04-16T09:13:55Z</time>
      </trkpt>
      <trkpt lat="45.27287" lon="0.50823">
        <ele>83</ele>
        <time>2025-04-16T09:14:04Z</time>
      </trkpt>
      <trkpt lat="45.27225" lon="0.50831">
        <ele>83</ele>
        <time>2025-04-16T09:14:15Z</time>
      </trkpt>
      <trkpt lat="45.2712" lon="0.50852">
        <ele>80</ele>
        <time>2025-04-16T09:14:34Z</time>
      </trkpt>
      <trkpt lat="45.27057" lon="0.50848">
        <ele>80</ele>
        <time>2025-04-16T09:14:45Z</time>
      </trkpt>
      <trkpt lat="45.26993" lon="0.50823">
        <ele>79</ele>
        <time>2025-04-16T09:14:57Z</time>
      </trkpt>
      <trkpt lat="45.26917" lon="0.50747">
        <ele>78</ele>
        <time>2025-04-16T09:15:14Z</time>
      </trkpt>
      <trkpt lat="45.26838" lon="0.50649">
        <ele>79</ele>
        <time>2025-04-16T09:15:32Z</time>
      </trkpt>
      <trkpt lat="45.26753" lon="0.50556">
        <ele>78</ele>
        <time>2025-04-16T09:15:52Z</time>
      </trkpt>
      <trkpt lat="45.26613" lon="0.50446">
        <ele>80</ele>
        <time>2025-04-16T09:16:20Z</time>
      </trkpt>
      <trkpt lat="45.26556" lon="0.50409">
        <ele>80</ele>
        <time>2025-04-16T09:16:31Z</time>
      </trkpt>
      <trkpt lat="45.265" lon="0.50363">
        <ele>82</ele>
        <time>2025-04-16T09:16:43Z</time>
      </trkpt>
      <trkpt lat="45.26488" lon="0.50365">
        <ele>81</ele>
        <time>2025-04-16T09:16:45Z</time>
      </trkpt>
      <trkpt lat="45.26363" lon="0.50287">
        <ele>81</ele>
        <time>2025-04-16T09:17:09Z</time>
      </trkpt>
      <trkpt lat="45.2629" lon="0.50225">
        <ele>80</ele>
        <time>2025-04-16T09:17:24Z</time>
      </trkpt>
      <trkpt lat="45.26213" lon="0.50153">
        <ele>80</ele>
        <time>2025-04-16T09:17:41Z</time>
      </trkpt>
      <trkpt lat="45.26148" lon="0.50099">
        <ele>78</ele>
        <time>2025-04-16T09:17:54Z</time>
      </trkpt>
      <trkpt lat="45.26099" lon="0.50007">
        <ele>77</ele>
        <time>2025-04-16T09:18:08Z</time>
      </trkpt>
      <trkpt lat="45.26047" lon="0.49891">
        <ele>77</ele>
        <time>2025-04-16T09:18:26Z</time>
      </trkpt>
      <trkpt lat="45.26042" lon="0.49866">
        <ele>77</ele>
        <time>2025-04-16T09:18:29Z</time>
      </trkpt>
      <trkpt lat="45.26003" lon="0.49553">
        <ele>76</ele>
        <time>2025-04-16T09:19:09Z</time>
      </trkpt>
      <trkpt lat="45.25991" lon="0.49458">
        <ele>76</ele>
        <time>2025-04-16T09:19:21Z</time>
      </trkpt>
      <trkpt lat="45.25995" lon="0.49268">
        <ele>77</ele>
        <time>2025-04-16T09:19:45Z</time>
      </trkpt>
      <trkpt lat="45.26006" lon="0.49155">
        <ele>76</ele>
        <time>2025-04-16T09:19:59Z</time>
      </trkpt>
      <trkpt lat="45.26036" lon="0.49155">
        <ele>76</ele>
        <time>2025-04-16T09:20:04Z</time>
      </trkpt>
      <trkpt lat="45.26057" lon="0.49145">
        <ele>76</ele>
        <time>2025-04-16T09:20:08Z</time>
      </trkpt>
      <trkpt lat="45.261" lon="0.49114">
        <ele>76</ele>
        <time>2025-04-16T09:20:17Z</time>
      </trkpt>
      <trkpt lat="45.2626" lon="0.48987">
        <ele>78</ele>
        <time>2025-04-16T09:20:49Z</time>
      </trkpt>
      <trkpt lat="45.26458" lon="0.48839">
        <ele>84</ele>
        <time>2025-04-16T09:21:29Z</time>
      </trkpt>
      <trkpt lat="45.26502" lon="0.48793">
        <ele>85</ele>
        <time>2025-04-16T09:21:39Z</time>
      </trkpt>
      <trkpt lat="45.26515" lon="0.48775">
        <ele>85</ele>
        <time>2025-04-16T09:21:42Z</time>
      </trkpt>
      <trkpt lat="45.26608" lon="0.48624">
        <ele>92</ele>
        <time>2025-04-16T09:22:07Z</time>
      </trkpt>
      <trkpt lat="45.26614" lon="0.48608">
        <ele>93</ele>
        <time>2025-04-16T09:22:10Z</time>
      </trkpt>
      <trkpt lat="45.26619" lon="0.48577">
        <ele>94</ele>
        <time>2025-04-16T09:22:14Z</time>
      </trkpt>
      <trkpt lat="45.26618" lon="0.48553">
        <ele>94</ele>
        <time>2025-04-16T09:22:17Z</time>
      </trkpt>
      <trkpt lat="45.26608" lon="0.4844">
        <ele>98</ele>
        <time>2025-04-16T09:22:31Z</time>
      </trkpt>
      <trkpt lat="45.26608" lon="0.48412">
        <ele>99</ele>
        <time>2025-04-16T09:22:34Z</time>
      </trkpt>
      <trkpt lat="45.26615" lon="0.48332">
        <ele>100</ele>
        <time>2025-04-16T09:22:44Z</time>
      </trkpt>
      <trkpt lat="45.26628" lon="0.48216">
        <ele>107</ele>
        <time>2025-04-16T09:22:59Z</time>
      </trkpt>
      <trkpt lat="45.26625" lon="0.48162">
        <ele>111</ele>
        <time>2025-04-16T09:23:06Z</time>
      </trkpt>
      <trkpt lat="45.26597" lon="0.48003">
        <ele>117</ele>
        <time>2025-04-16T09:23:26Z</time>
      </trkpt>
      <trkpt lat="45.26594" lon="0.47954">
        <ele>118</ele>
        <time>2025-04-16T09:23:33Z</time>
      </trkpt>
      <trkpt lat="45.26598" lon="0.47927">
        <ele>119</ele>
        <time>2025-04-16T09:23:36Z</time>
      </trkpt>
      <trkpt lat="45.2659" lon="0.47919">
        <ele>118</ele>
        <time>2025-04-16T09:23:38Z</time>
      </trkpt>
      <trkpt lat="45.26578" lon="0.47877">
        <ele>114</ele>
        <time>2025-04-16T09:23:43Z</time>
      </trkpt>
      <trkpt lat="45.26565" lon="0.47855">
        <ele>111</ele>
        <time>2025-04-16T09:23:47Z</time>
      </trkpt>
      <trkpt lat="45.26499" lon="0.47805">
        <ele>102</ele>
        <time>2025-04-16T09:24:00Z</time>
      </trkpt>
      <trkpt lat="45.26409" lon="0.47685">
        <ele>90</ele>
        <time>2025-04-16T09:24:22Z</time>
      </trkpt>
      <trkpt lat="45.26385" lon="0.47632">
        <ele>86</ele>
        <time>2025-04-16T09:24:30Z</time>
      </trkpt>
      <trkpt lat="45.26361" lon="0.47609">
        <ele>83</ele>
        <time>2025-04-16T09:24:35Z</time>
      </trkpt>
      <trkpt lat="45.26334" lon="0.47595">
        <ele>81</ele>
        <time>2025-04-16T09:24:40Z</time>
      </trkpt>
      <trkpt lat="45.26322" lon="0.47592">
        <ele>80</ele>
        <time>2025-04-16T09:24:43Z</time>
      </trkpt>
      <trkpt lat="45.26306" lon="0.47592">
        <ele>79</ele>
        <time>2025-04-16T09:24:45Z</time>
      </trkpt>
      <trkpt lat="45.26281" lon="0.47489">
        <ele>77</ele>
        <time>2025-04-16T09:24:59Z</time>
      </trkpt>
      <trkpt lat="45.26269" lon="0.47456">
        <ele>79</ele>
        <time>2025-04-16T09:25:04Z</time>
      </trkpt>
      <trkpt lat="45.26257" lon="0.47436">
        <ele>79</ele>
        <time>2025-04-16T09:25:07Z</time>
      </trkpt>
      <trkpt lat="45.2615" lon="0.47318">
        <ele>75</ele>
        <time>2025-04-16T09:25:31Z</time>
      </trkpt>
      <trkpt lat="45.26114" lon="0.47251">
        <ele>76</ele>
        <time>2025-04-16T09:25:42Z</time>
      </trkpt>
      <trkpt lat="45.26068" lon="0.4714">
        <ele>77</ele>
        <time>2025-04-16T09:25:58Z</time>
      </trkpt>
      <trkpt lat="45.26003" lon="0.46998">
        <ele>77</ele>
        <time>2025-04-16T09:26:19Z</time>
      </trkpt>
      <trkpt lat="45.25967" lon="0.46898">
        <ele>80</ele>
        <time>2025-04-16T09:26:33Z</time>
      </trkpt>
      <trkpt lat="45.25879" lon="0.46678">
        <ele>79</ele>
        <time>2025-04-16T09:27:05Z</time>
      </trkpt>
      <trkpt lat="45.2587" lon="0.4666">
        <ele>80</ele>
        <time>2025-04-16T09:27:08Z</time>
      </trkpt>
      <trkpt lat="45.2586" lon="0.46648">
        <ele>80</ele>
        <time>2025-04-16T09:27:10Z</time>
      </trkpt>
      <trkpt lat="45.25825" lon="0.46618">
        <ele>81</ele>
        <time>2025-04-16T09:27:17Z</time>
      </trkpt>
      <trkpt lat="45.25818" lon="0.46608">
        <ele>81</ele>
        <time>2025-04-16T09:27:19Z</time>
      </trkpt>
      <trkpt lat="45.25811" lon="0.46593">
        <ele>81</ele>
        <time>2025-04-16T09:27:21Z</time>
      </trkpt>
      <trkpt lat="45.25811" lon="0.46573">
        <ele>82</ele>
        <time>2025-04-16T09:27:24Z</time>
      </trkpt>
      <trkpt lat="45.25821" lon="0.46489">
        <ele>86</ele>
        <time>2025-04-16T09:27:34Z</time>
      </trkpt>
      <trkpt lat="45.25818" lon="0.46466">
        <ele>86</ele>
        <time>2025-04-16T09:27:37Z</time>
      </trkpt>
      <trkpt lat="45.25813" lon="0.46442">
        <ele>87</ele>
        <time>2025-04-16T09:27:40Z</time>
      </trkpt>
      <trkpt lat="45.25803" lon="0.46413">
        <ele>87</ele>
        <time>2025-04-16T09:27:45Z</time>
      </trkpt>
      <trkpt lat="45.25785" lon="0.46371">
        <ele>89</ele>
        <time>2025-04-16T09:27:51Z</time>
      </trkpt>
      <trkpt lat="45.2572" lon="0.46244">
        <ele>91</ele>
        <time>2025-04-16T09:28:10Z</time>
      </trkpt>
      <trkpt lat="45.25706" lon="0.46206">
        <ele>92</ele>
        <time>2025-04-16T09:28:16Z</time>
      </trkpt>
      <trkpt lat="45.25702" lon="0.46182">
        <ele>92</ele>
        <time>2025-04-16T09:28:19Z</time>
      </trkpt>
      <trkpt lat="45.25701" lon="0.46158">
        <ele>93</ele>
        <time>2025-04-16T09:28:22Z</time>
      </trkpt>
      <trkpt lat="45.25706" lon="0.46133">
        <ele>94</ele>
        <time>2025-04-16T09:28:25Z</time>
      </trkpt>
      <trkpt lat="45.25716" lon="0.4611">
        <ele>95</ele>
        <time>2025-04-16T09:28:28Z</time>
      </trkpt>
      <trkpt lat="45.25753" lon="0.46058">
        <ele>99</ele>
        <time>2025-04-16T09:28:38Z</time>
      </trkpt>
      <trkpt lat="45.25774" lon="0.46013">
        <ele>101</ele>
        <time>2025-04-16T09:28:44Z</time>
      </trkpt>
      <trkpt lat="45.25818" lon="0.45862">
        <ele>98</ele>
        <time>2025-04-16T09:29:05Z</time>
      </trkpt>
      <trkpt lat="45.25846" lon="0.45758">
        <ele>96</ele>
        <time>2025-04-16T09:29:19Z</time>
      </trkpt>
      <trkpt lat="45.25854" lon="0.45717">
        <ele>96</ele>
        <time>2025-04-16T09:29:24Z</time>
      </trkpt>
      <trkpt lat="45.25856" lon="0.45651">
        <ele>95</ele>
        <time>2025-04-16T09:29:32Z</time>
      </trkpt>
      <trkpt lat="45.25857" lon="0.45626">
        <ele>95</ele>
        <time>2025-04-16T09:29:36Z</time>
      </trkpt>
      <trkpt lat="45.25856" lon="0.45527">
        <ele>93</ele>
        <time>2025-04-16T09:29:48Z</time>
      </trkpt>
      <trkpt lat="45.25852" lon="0.45472">
        <ele>92</ele>
        <time>2025-04-16T09:29:55Z</time>
      </trkpt>
      <trkpt lat="45.25846" lon="0.45422">
        <ele>90</ele>
        <time>2025-04-16T09:30:01Z</time>
      </trkpt>
      <trkpt lat="45.25838" lon="0.45381">
        <ele>89</ele>
        <time>2025-04-16T09:30:07Z</time>
      </trkpt>
      <trkpt lat="45.25812" lon="0.45285">
        <ele>85</ele>
        <time>2025-04-16T09:30:20Z</time>
      </trkpt>
      <trkpt lat="45.25804" lon="0.4524">
        <ele>83</ele>
        <time>2025-04-16T09:30:25Z</time>
      </trkpt>
      <trkpt lat="45.25801" lon="0.45216">
        <ele>82</ele>
        <time>2025-04-16T09:30:28Z</time>
      </trkpt>
      <trkpt lat="45.25801" lon="0.45199">
        <ele>81</ele>
        <time>2025-04-16T09:30:31Z</time>
      </trkpt>
      <trkpt lat="45.25805" lon="0.45172">
        <ele>81</ele>
        <time>2025-04-16T09:30:34Z</time>
      </trkpt>
      <trkpt lat="45.2582" lon="0.45116">
        <ele>80</ele>
        <time>2025-04-16T09:30:41Z</time>
      </trkpt>
      <trkpt lat="45.25828" lon="0.4507">
        <ele>79</ele>
        <time>2025-04-16T09:30:47Z</time>
      </trkpt>
      <trkpt lat="45.25859" lon="0.4478">
        <ele>84</ele>
        <time>2025-04-16T09:31:24Z</time>
      </trkpt>
      <trkpt lat="45.2586" lon="0.44718">
        <ele>84</ele>
        <time>2025-04-16T09:31:32Z</time>
      </trkpt>
      <trkpt lat="45.2586" lon="0.44441">
        <ele>82</ele>
        <time>2025-04-16T09:32:07Z</time>
      </trkpt>
      <trkpt lat="45.25861" lon="0.44254">
        <ele>77</ele>
        <time>2025-04-16T09:32:30Z</time>
      </trkpt>
      <trkpt lat="45.25862" lon="0.44205">
        <ele>76</ele>
        <time>2025-04-16T09:32:36Z</time>
      </trkpt>
      <trkpt lat="45.25865" lon="0.44175">
        <ele>75</ele>
        <time>2025-04-16T09:32:40Z</time>
      </trkpt>
      <trkpt lat="45.2587" lon="0.44149">
        <ele>75</ele>
        <time>2025-04-16T09:32:43Z</time>
      </trkpt>
      <trkpt lat="45.25884" lon="0.44112">
        <ele>76</ele>
        <time>2025-04-16T09:32:49Z</time>
      </trkpt>
      <trkpt lat="45.25938" lon="0.44013">
        <ele>77</ele>
        <time>2025-04-16T09:33:04Z</time>
      </trkpt>
      <trkpt lat="45.25951" lon="0.43983">
        <ele>79</ele>
        <time>2025-04-16T09:33:09Z</time>
      </trkpt>
      <trkpt lat="45.25956" lon="0.43965">
        <ele>80</ele>
        <time>2025-04-16T09:33:11Z</time>
      </trkpt>
      <trkpt lat="45.2596" lon="0.43931">
        <ele>81</ele>
        <time>2025-04-16T09:33:15Z</time>
      </trkpt>
      <trkpt lat="45.25965" lon="0.43831">
        <ele>83</ele>
        <time>2025-04-16T09:33:28Z</time>
      </trkpt>
      <trkpt lat="45.25962" lon="0.43796">
        <ele>84</ele>
        <time>2025-04-16T09:33:32Z</time>
      </trkpt>
      <trkpt lat="45.25953" lon="0.43738">
        <ele>84</ele>
        <time>2025-04-16T09:33:40Z</time>
      </trkpt>
      <trkpt lat="45.25944" lon="0.43686">
        <ele>85</ele>
        <time>2025-04-16T09:33:47Z</time>
      </trkpt>
      <trkpt lat="45.25941" lon="0.43647">
        <ele>85</ele>
        <time>2025-04-16T09:33:51Z</time>
      </trkpt>
      <trkpt lat="45.25923" lon="0.43143">
        <ele>83</ele>
        <time>2025-04-16T09:34:55Z</time>
      </trkpt>
      <trkpt lat="45.25912" lon="0.43061">
        <ele>82</ele>
        <time>2025-04-16T09:35:05Z</time>
      </trkpt>
      <trkpt lat="45.2591" lon="0.43029">
        <ele>82</ele>
        <time>2025-04-16T09:35:09Z</time>
      </trkpt>
      <trkpt lat="45.25872" lon="0.42898">
        <ele>77</ele>
        <time>2025-04-16T09:35:27Z</time>
      </trkpt>
      <trkpt lat="45.25867" lon="0.42865">
        <ele>75</ele>
        <time>2025-04-16T09:35:31Z</time>
      </trkpt>
      <trkpt lat="45.25872" lon="0.42805">
        <ele>73</ele>
        <time>2025-04-16T09:35:39Z</time>
      </trkpt>
      <trkpt lat="45.25864" lon="0.42621">
        <ele>69</ele>
        <time>2025-04-16T09:36:02Z</time>
      </trkpt>
      <trkpt lat="45.25858" lon="0.42555">
        <ele>69</ele>
        <time>2025-04-16T09:36:10Z</time>
      </trkpt>
      <trkpt lat="45.25856" lon="0.42543">
        <ele>70</ele>
        <time>2025-04-16T09:36:12Z</time>
      </trkpt>
      <trkpt lat="45.2581" lon="0.42413">
        <ele>71</ele>
        <time>2025-04-16T09:36:30Z</time>
      </trkpt>
      <trkpt lat="45.25782" lon="0.42278">
        <ele>73</ele>
        <time>2025-04-16T09:36:48Z</time>
      </trkpt>
      <trkpt lat="45.25758" lon="0.42148">
        <ele>76</ele>
        <time>2025-04-16T09:37:04Z</time>
      </trkpt>
      <trkpt lat="45.25756" lon="0.42011">
        <ele>75</ele>
        <time>2025-04-16T09:37:22Z</time>
      </trkpt>
      <trkpt lat="45.2576" lon="0.41983">
        <ele>75</ele>
        <time>2025-04-16T09:37:25Z</time>
      </trkpt>
      <trkpt lat="45.25797" lon="0.41921">
        <ele>79</ele>
        <time>2025-04-16T09:37:35Z</time>
      </trkpt>
      <trkpt lat="45.25804" lon="0.41894">
        <ele>80</ele>
        <time>2025-04-16T09:37:39Z</time>
      </trkpt>
      <trkpt lat="45.25813" lon="0.41811">
        <ele>84</ele>
        <time>2025-04-16T09:37:49Z</time>
      </trkpt>
      <trkpt lat="45.25831" lon="0.4171">
        <ele>88</ele>
        <time>2025-04-16T09:38:02Z</time>
      </trkpt>
      <trkpt lat="45.25838" lon="0.4167">
        <ele>88</ele>
        <time>2025-04-16T09:38:08Z</time>
      </trkpt>
      <trkpt lat="45.25911" lon="0.41421">
        <ele>82</ele>
        <time>2025-04-16T09:38:41Z</time>
      </trkpt>
      <trkpt lat="45.25919" lon="0.41374">
        <ele>83</ele>
        <time>2025-04-16T09:38:47Z</time>
      </trkpt>
      <trkpt lat="45.25925" lon="0.41291">
        <ele>82</ele>
        <time>2025-04-16T09:38:58Z</time>
      </trkpt>
      <trkpt lat="45.25934" lon="0.41086">
        <ele>80</ele>
        <time>2025-04-16T09:39:24Z</time>
      </trkpt>
      <trkpt lat="45.2593" lon="0.41063">
        <ele>79</ele>
        <time>2025-04-16T09:39:27Z</time>
      </trkpt>
      <trkpt lat="45.25928" lon="0.41058">
        <ele>79</ele>
        <time>2025-04-16T09:39:27Z</time>
      </trkpt>
      <trkpt lat="45.25933" lon="0.41044">
        <ele>79</ele>
        <time>2025-04-16T09:39:29Z</time>
      </trkpt>
      <trkpt lat="45.25937" lon="0.41026">
        <ele>78</ele>
        <time>2025-04-16T09:39:32Z</time>
      </trkpt>
      <trkpt lat="45.25944" lon="0.40932">
        <ele>76</ele>
        <time>2025-04-16T09:39:43Z</time>
      </trkpt>
      <trkpt lat="45.25947" lon="0.40837">
        <ele>75</ele>
        <time>2025-04-16T09:39:55Z</time>
      </trkpt>
      <trkpt lat="45.25951" lon="0.40773">
        <ele>74</ele>
        <time>2025-04-16T09:40:03Z</time>
      </trkpt>
      <trkpt lat="45.25957" lon="0.40735">
        <ele>74</ele>
        <time>2025-04-16T09:40:08Z</time>
      </trkpt>
      <trkpt lat="45.25968" lon="0.40686">
        <ele>72</ele>
        <time>2025-04-16T09:40:15Z</time>
      </trkpt>
      <trkpt lat="45.2605" lon="0.40421">
        <ele>70</ele>
        <time>2025-04-16T09:40:51Z</time>
      </trkpt>
      <trkpt lat="45.26102" lon="0.4028">
        <ele>70</ele>
        <time>2025-04-16T09:41:11Z</time>
      </trkpt>
      <trkpt lat="45.26331" lon="0.39838">
        <ele>73</ele>
        <time>2025-04-16T09:42:20Z</time>
      </trkpt>
      <trkpt lat="45.2636" lon="0.39772">
        <ele>74</ele>
        <time>2025-04-16T09:42:29Z</time>
      </trkpt>
      <trkpt lat="45.26371" lon="0.39738">
        <ele>75</ele>
        <time>2025-04-16T09:42:34Z</time>
      </trkpt>
      <trkpt lat="45.26378" lon="0.39696">
        <ele>76</ele>
        <time>2025-04-16T09:42:40Z</time>
      </trkpt>
      <trkpt lat="45.26378" lon="0.39652">
        <ele>76</ele>
        <time>2025-04-16T09:42:45Z</time>
      </trkpt>
      <trkpt lat="45.26347" lon="0.39157">
        <ele>67</ele>
        <time>2025-04-16T09:43:47Z</time>
      </trkpt>
      <trkpt lat="45.26349" lon="0.39121">
        <ele>67</ele>
        <time>2025-04-16T09:43:52Z</time>
      </trkpt>
      <trkpt lat="45.26351" lon="0.39108">
        <ele>67</ele>
        <time>2025-04-16T09:43:53Z</time>
      </trkpt>
      <trkpt lat="45.26355" lon="0.39087">
        <ele>67</ele>
        <time>2025-04-16T09:43:56Z</time>
      </trkpt>
      <trkpt lat="45.26357" lon="0.39081">
        <ele>67</ele>
        <time>2025-04-16T09:43:57Z</time>
      </trkpt>
      <trkpt lat="45.26355" lon="0.39069">
        <ele>67</ele>
        <time>2025-04-16T09:43:59Z</time>
      </trkpt>
      <trkpt lat="45.26355" lon="0.39054">
        <ele>68</ele>
        <time>2025-04-16T09:44:00Z</time>
      </trkpt>
      <trkpt lat="45.26366" lon="0.38959">
        <ele>69</ele>
        <time>2025-04-16T09:44:12Z</time>
      </trkpt>
      <trkpt lat="45.26368" lon="0.3894">
        <ele>69</ele>
        <time>2025-04-16T09:44:15Z</time>
      </trkpt>
      <trkpt lat="45.26366" lon="0.38926">
        <ele>69</ele>
        <time>2025-04-16T09:44:17Z</time>
      </trkpt>
      <trkpt lat="45.26357" lon="0.38898">
        <ele>70</ele>
        <time>2025-04-16T09:44:21Z</time>
      </trkpt>
      <trkpt lat="45.26329" lon="0.38843">
        <ele>70</ele>
        <time>2025-04-16T09:44:29Z</time>
      </trkpt>
      <trkpt lat="45.26312" lon="0.38807">
        <ele>71</ele>
        <time>2025-04-16T09:44:34Z</time>
      </trkpt>
      <trkpt lat="45.26306" lon="0.38785">
        <ele>71</ele>
        <time>2025-04-16T09:44:37Z</time>
      </trkpt>
      <trkpt lat="45.26304" lon="0.38759">
        <ele>72</ele>
        <time>2025-04-16T09:44:41Z</time>
      </trkpt>
      <trkpt lat="45.26307" lon="0.38519">
        <ele>78</ele>
        <time>2025-04-16T09:45:11Z</time>
      </trkpt>
      <trkpt lat="45.26305" lon="0.38475">
        <ele>78</ele>
        <time>2025-04-16T09:45:16Z</time>
      </trkpt>
      <trkpt lat="45.2629" lon="0.38307">
        <ele>78</ele>
        <time>2025-04-16T09:45:37Z</time>
      </trkpt>
      <trkpt lat="45.26285" lon="0.38233">
        <ele>78</ele>
        <time>2025-04-16T09:45:47Z</time>
      </trkpt>
      <trkpt lat="45.26284" lon="0.38172">
        <ele>78</ele>
        <time>2025-04-16T09:45:54Z</time>
      </trkpt>
      <trkpt lat="45.26288" lon="0.38084">
        <ele>78</ele>
        <time>2025-04-16T09:46:05Z</time>
      </trkpt>
      <trkpt lat="45.26293" lon="0.38053">
        <ele>77</ele>
        <time>2025-04-16T09:46:09Z</time>
      </trkpt>
      <trkpt lat="45.26297" lon="0.38032">
        <ele>77</ele>
        <time>2025-04-16T09:46:12Z</time>
      </trkpt>
      <trkpt lat="45.2631" lon="0.3799">
        <ele>77</ele>
        <time>2025-04-16T09:46:18Z</time>
      </trkpt>
      <trkpt lat="45.26335" lon="0.37922">
        <ele>77</ele>
        <time>2025-04-16T09:46:28Z</time>
      </trkpt>
      <trkpt lat="45.26341" lon="0.37884">
        <ele>78</ele>
        <time>2025-04-16T09:46:32Z</time>
      </trkpt>
      <trkpt lat="45.26342" lon="0.37856">
        <ele>78</ele>
        <time>2025-04-16T09:46:36Z</time>
      </trkpt>
      <trkpt lat="45.2634" lon="0.37826">
        <ele>79</ele>
        <time>2025-04-16T09:46:40Z</time>
      </trkpt>
      <trkpt lat="45.26335" lon="0.37798">
        <ele>79</ele>
        <time>2025-04-16T09:46:43Z</time>
      </trkpt>
      <trkpt lat="45.2632" lon="0.37749">
        <ele>78</ele>
        <time>2025-04-16T09:46:50Z</time>
      </trkpt>
      <trkpt lat="45.26312" lon="0.3771">
        <ele>78</ele>
        <time>2025-04-16T09:46:55Z</time>
      </trkpt>
      <trkpt lat="45.26307" lon="0.37659">
        <ele>77</ele>
        <time>2025-04-16T09:47:02Z</time>
      </trkpt>
      <trkpt lat="45.26304" lon="0.37557">
        <ele>75</ele>
        <time>2025-04-16T09:47:14Z</time>
      </trkpt>
      <trkpt lat="45.26294" lon="0.37473">
        <ele>74</ele>
        <time>2025-04-16T09:47:25Z</time>
      </trkpt>
      <trkpt lat="45.26291" lon="0.37435">
        <ele>74</ele>
        <time>2025-04-16T09:47:30Z</time>
      </trkpt>
      <trkpt lat="45.2629" lon="0.37407">
        <ele>74</ele>
        <time>2025-04-16T09:47:33Z</time>
      </trkpt>
      <trkpt lat="45.26295" lon="0.37243">
        <ele>68</ele>
        <time>2025-04-16T09:47:54Z</time>
      </trkpt>
      <trkpt lat="45.26295" lon="0.37219">
        <ele>67</ele>
        <time>2025-04-16T09:47:57Z</time>
      </trkpt>
      <trkpt lat="45.26299" lon="0.37017">
        <ele>67</ele>
        <time>2025-04-16T09:48:22Z</time>
      </trkpt>
      <trkpt lat="45.26264" lon="0.36545">
        <ele>71</ele>
        <time>2025-04-16T09:49:22Z</time>
      </trkpt>
      <trkpt lat="45.2626" lon="0.36454">
        <ele>71</ele>
        <time>2025-04-16T09:49:33Z</time>
      </trkpt>
      <trkpt lat="45.26238" lon="0.36376">
        <ele>69</ele>
        <time>2025-04-16T09:49:44Z</time>
      </trkpt>
      <trkpt lat="45.2623" lon="0.36336">
        <ele>69</ele>
        <time>2025-04-16T09:49:49Z</time>
      </trkpt>
      <trkpt lat="45.26227" lon="0.36312">
        <ele>69</ele>
        <time>2025-04-16T09:49:52Z</time>
      </trkpt>
      <trkpt lat="45.26225" lon="0.36273">
        <ele>69</ele>
        <time>2025-04-16T09:49:57Z</time>
      </trkpt>
      <trkpt lat="45.26225" lon="0.36143">
        <ele>68</ele>
        <time>2025-04-16T09:50:13Z</time>
      </trkpt>
      <trkpt lat="45.26216" lon="0.36088">
        <ele>67</ele>
        <time>2025-04-16T09:50:20Z</time>
      </trkpt>
      <trkpt lat="45.26214" lon="0.36082">
        <ele>67</ele>
        <time>2025-04-16T09:50:21Z</time>
      </trkpt>
      <trkpt lat="45.26199" lon="0.36014">
        <ele>66</ele>
        <time>2025-04-16T09:50:30Z</time>
      </trkpt>
      <trkpt lat="45.26194" lon="0.35955">
        <ele>65</ele>
        <time>2025-04-16T09:50:37Z</time>
      </trkpt>
      <trkpt lat="45.26191" lon="0.35837">
        <ele>64</ele>
        <time>2025-04-16T09:50:52Z</time>
      </trkpt>
      <trkpt lat="45.26186" lon="0.35739">
        <ele>66</ele>
        <time>2025-04-16T09:51:04Z</time>
      </trkpt>
      <trkpt lat="45.26148" lon="0.35455">
        <ele>65</ele>
        <time>2025-04-16T09:51:41Z</time>
      </trkpt>
      <trkpt lat="45.26146" lon="0.35406">
        <ele>65</ele>
        <time>2025-04-16T09:51:47Z</time>
      </trkpt>
      <trkpt lat="45.26148" lon="0.35373">
        <ele>65</ele>
        <time>2025-04-16T09:51:51Z</time>
      </trkpt>
      <trkpt lat="45.26154" lon="0.35333">
        <ele>65</ele>
        <time>2025-04-16T09:51:56Z</time>
      </trkpt>
      <trkpt lat="45.26174" lon="0.35209">
        <ele>65</ele>
        <time>2025-04-16T09:52:12Z</time>
      </trkpt>
      <trkpt lat="45.2625" lon="0.3476">
        <ele>64</ele>
        <time>2025-04-16T09:53:10Z</time>
      </trkpt>
      <trkpt lat="45.26254" lon="0.34733">
        <ele>64</ele>
        <time>2025-04-16T09:53:13Z</time>
      </trkpt>
      <trkpt lat="45.26254" lon="0.34713">
        <ele>64</ele>
        <time>2025-04-16T09:53:16Z</time>
      </trkpt>
      <trkpt lat="45.26249" lon="0.34681">
        <ele>63</ele>
        <time>2025-04-16T09:53:20Z</time>
      </trkpt>
      <trkpt lat="45.26135" lon="0.34322">
        <ele>61</ele>
        <time>2025-04-16T09:54:09Z</time>
      </trkpt>
      <trkpt lat="45.26131" lon="0.34298">
        <ele>61</ele>
        <time>2025-04-16T09:54:12Z</time>
      </trkpt>
      <trkpt lat="45.26132" lon="0.34295">
        <ele>61</ele>
        <time>2025-04-16T09:54:13Z</time>
      </trkpt>
      <trkpt lat="45.26133" lon="0.34285">
        <ele>61</ele>
        <time>2025-04-16T09:54:14Z</time>
      </trkpt>
      <trkpt lat="45.26128" lon="0.34278">
        <ele>61</ele>
        <time>2025-04-16T09:54:15Z</time>
      </trkpt>
      <trkpt lat="45.26122" lon="0.34276">
        <ele>61</ele>
        <time>2025-04-16T09:54:16Z</time>
      </trkpt>
      <trkpt lat="45.2612" lon="0.34278">
        <ele>61</ele>
        <time>2025-04-16T09:54:17Z</time>
      </trkpt>
      <trkpt lat="45.26115" lon="0.34285">
        <ele>61</ele>
        <time>2025-04-16T09:54:18Z</time>
      </trkpt>
      <trkpt lat="45.26101" lon="0.34287">
        <ele>61</ele>
        <time>2025-04-16T09:54:20Z</time>
      </trkpt>
      <trkpt lat="45.26056" lon="0.34284">
        <ele>61</ele>
        <time>2025-04-16T09:54:28Z</time>
      </trkpt>
      <trkpt lat="45.25963" lon="0.34288">
        <ele>61</ele>
        <time>2025-04-16T09:54:45Z</time>
      </trkpt>
      <trkpt lat="45.25925" lon="0.34288">
        <ele>61</ele>
        <time>2025-04-16T09:54:52Z</time>
      </trkpt>
      <trkpt lat="45.25797" lon="0.3429">
        <ele>63</ele>
        <time>2025-04-16T09:55:15Z</time>
      </trkpt>
      <trkpt lat="45.25768" lon="0.34291">
        <ele>62</ele>
        <time>2025-04-16T09:55:20Z</time>
      </trkpt>
      <trkpt lat="45.25715" lon="0.34292">
        <ele>62</ele>
        <time>2025-04-16T09:55:29Z</time>
      </trkpt>
      <trkpt lat="45.25693" lon="0.3429">
        <ele>61</ele>
        <time>2025-04-16T09:55:33Z</time>
      </trkpt>
      <trkpt lat="45.25678" lon="0.34286">
        <ele>61</ele>
        <time>2025-04-16T09:55:36Z</time>
      </trkpt>
      <trkpt lat="45.2566" lon="0.34276">
        <ele>61</ele>
        <time>2025-04-16T09:55:39Z</time>
      </trkpt>
      <trkpt lat="45.25619" lon="0.34246">
        <ele>63</ele>
        <time>2025-04-16T09:55:47Z</time>
      </trkpt>
      <trkpt lat="45.25505" lon="0.34162">
        <ele>65</ele>
        <time>2025-04-16T09:56:10Z</time>
      </trkpt>
      <trkpt lat="45.25472" lon="0.34135">
        <ele>67</ele>
        <time>2025-04-16T09:56:17Z</time>
      </trkpt>
      <trkpt lat="45.25462" lon="0.34115">
        <ele>67</ele>
        <time>2025-04-16T09:56:20Z</time>
      </trkpt>
      <trkpt lat="45.25463" lon="0.34104">
        <ele>67</ele>
        <time>2025-04-16T09:56:22Z</time>
      </trkpt>
      <trkpt lat="45.25462" lon="0.34099">
        <ele>67</ele>
        <time>2025-04-16T09:56:22Z</time>
      </trkpt>
      <trkpt lat="45.25469" lon="0.34083">
        <ele>66</ele>
        <time>2025-04-16T09:56:25Z</time>
      </trkpt>
      <trkpt lat="45.25484" lon="0.34069">
        <ele>66</ele>
        <time>2025-04-16T09:56:28Z</time>
      </trkpt>
      <trkpt lat="45.25494" lon="0.34054">
        <ele>65</ele>
        <time>2025-04-16T09:56:30Z</time>
      </trkpt>
      <trkpt lat="45.255" lon="0.34039">
        <ele>64</ele>
        <time>2025-04-16T09:56:32Z</time>
      </trkpt>
      <trkpt lat="45.25513" lon="0.33978">
        <ele>64</ele>
        <time>2025-04-16T09:56:40Z</time>
      </trkpt>
      <trkpt lat="45.25514" lon="0.33974">
        <ele>64</ele>
        <time>2025-04-16T09:56:41Z</time>
      </trkpt>
      <trkpt lat="45.25547" lon="0.33806">
        <ele>67</ele>
        <time>2025-04-16T09:57:03Z</time>
      </trkpt>
      <trkpt lat="45.25549" lon="0.33787">
        <ele>67</ele>
        <time>2025-04-16T09:57:05Z</time>
      </trkpt>
      <trkpt lat="45.2555" lon="0.33766">
        <ele>68</ele>
        <time>2025-04-16T09:57:08Z</time>
      </trkpt>
      <trkpt lat="45.25541" lon="0.33708">
        <ele>69</ele>
        <time>2025-04-16T09:57:15Z</time>
      </trkpt>
      <trkpt lat="45.25539" lon="0.33679">
        <ele>69</ele>
        <time>2025-04-16T09:57:19Z</time>
      </trkpt>
      <trkpt lat="45.25536" lon="0.33672">
        <ele>70</ele>
        <time>2025-04-16T09:57:20Z</time>
      </trkpt>
      <trkpt lat="45.2553" lon="0.33667">
        <ele>70</ele>
        <time>2025-04-16T09:57:21Z</time>
      </trkpt>
      <trkpt lat="45.25452" lon="0.33655">
        <ele>70</ele>
        <time>2025-04-16T09:57:35Z</time>
      </trkpt>
      <trkpt lat="45.25437" lon="0.3365">
        <ele>69</ele>
        <time>2025-04-16T09:57:38Z</time>
      </trkpt>
      <trkpt lat="45.25076" lon="0.33593">
        <ele>72</ele>
        <time>2025-04-16T09:58:43Z</time>
      </trkpt>
      <trkpt lat="45.25073" lon="0.33623">
        <ele>71</ele>
        <time>2025-04-16T09:58:46Z</time>
      </trkpt>
      <trkpt lat="45.25077" lon="0.33681">
        <ele>70</ele>
        <time>2025-04-16T09:58:54Z</time>
      </trkpt>
      <trkpt lat="45.24999" lon="0.33697">
        <ele>72</ele>
        <time>2025-04-16T09:59:08Z</time>
      </trkpt>
    </trkseg>
  </trk>
</gpx>